Wetterdaten: Dienstag, 22.02.2022
Datum Zeit Temp. Aussen Temp. o. S. Temp +5cm Feuchte Auss Luftdruck Regen Sonnenschein Regendauer Solar Windben Empfang
22.02.2022 00:00 5,9 C 5,0 C 2,2 C 88 % 1015,7 hPa 0,0 l/m 0 min 0 min 0 W/m 12,9 km/h (3 Bft) 100,00 %
22.02.2022 00:02 5,9 C 5,0 C 2,2 C 88 % 1015,7 hPa 0,0 l/m 0 min 0 min 0 W/m 16,1 km/h (3 Bft) 97,30 %
22.02.2022 00:04 5,9 C 5,0 C 2,2 C 88 % 1015,8 hPa 0,0 l/m 0 min 0 min 0 W/m 19,3 km/h (3 Bft) 100,00 %
22.02.2022 00:08 5,9 C 5,0 C 2,2 C 89 % 1015,8 hPa 0,0 l/m 0 min 0 min 0 W/m 16,1 km/h (3 Bft) 98,92 %
22.02.2022 00:10 5,9 C 5,0 C 2,8 C 89 % 1015,9 hPa 0,0 l/m 0 min 0 min 0 W/m 19,3 km/h (3 Bft) 100,00 %
22.02.2022 00:12 5,9 C 5,6 C 2,8 C 89 % 1015,9 hPa 0,0 l/m 0 min 0 min 0 W/m 12,9 km/h (3 Bft) 97,87 %
22.02.2022 00:14 5,9 C 5,6 C 2,8 C 89 % 1015,9 hPa 0,0 l/m 0 min 0 min 0 W/m 16,1 km/h (3 Bft) 95,74 %
22.02.2022 00:16 5,9 C 5,0 C 2,8 C 89 % 1015,8 hPa 0,0 l/m 0 min 0 min 0 W/m 9,7 km/h (2 Bft) 97,87 %
22.02.2022 00:18 5,9 C 5,0 C 2,8 C 89 % 1015,9 hPa 0,0 l/m 0 min 0 min 0 W/m 12,9 km/h (3 Bft) 97,83 %
22.02.2022 00:20 5,9 C 5,0 C 2,2 C 89 % 1015,9 hPa 0,0 l/m 0 min 0 min 0 W/m 16,1 km/h (3 Bft) 97,87 %
22.02.2022 00:22 5,9 C 5,0 C 2,2 C 89 % 1016,1 hPa 0,0 l/m 0 min 0 min 0 W/m 12,9 km/h (3 Bft) 97,87 %
22.02.2022 00:24 5,9 C 5,0 C 2,2 C 89 % 1016,2 hPa 0,0 l/m 0 min 0 min 0 W/m 16,1 km/h (3 Bft) 97,87 %
22.02.2022 00:26 5,8 C 5,0 C 2,2 C 89 % 1016,2 hPa 0,0 l/m 0 min 0 min 0 W/m 12,9 km/h (3 Bft) 97,87 %
22.02.2022 00:28 5,8 C 5,0 C 2,8 C 89 % 1016,2 hPa 0,0 l/m 0 min 0 min 0 W/m 16,1 km/h (3 Bft) 97,87 %
22.02.2022 00:30 5,8 C 5,0 C 2,8 C 89 % 1016,2 hPa 0,0 l/m 0 min 0 min 0 W/m 16,1 km/h (3 Bft) 97,83 %
22.02.2022 00:32 5,8 C 5,0 C 2,8 C 89 % 1016,3 hPa 0,0 l/m 0 min 0 min 0 W/m 19,3 km/h (3 Bft) 93,62 %
22.02.2022 00:34 5,9 C 5,0 C 2,8 C 89 % 1016,3 hPa 0,0 l/m 0 min 0 min 0 W/m 12,9 km/h (3 Bft) 97,87 %
22.02.2022 00:36 5,8 C 5,0 C 2,8 C 89 % 1016,5 hPa 0,0 l/m 0 min 0 min 0 W/m 16,1 km/h (3 Bft) 97,87 %
22.02.2022 00:38 5,8 C 5,0 C 2,8 C 89 % 1016,5 hPa 0,0 l/m 0 min 0 min 0 W/m 12,9 km/h (3 Bft) 97,87 %
22.02.2022 00:40 5,8 C 5,6 C 2,8 C 89 % 1016,5 hPa 0,0 l/m 0 min 0 min 0 W/m 22,5 km/h (4 Bft) 97,87 %
22.02.2022 00:42 5,8 C 5,0 C 2,8 C 89 % 1016,5 hPa 0,0 l/m 0 min 0 min 0 W/m 12,9 km/h (3 Bft) 97,83 %
22.02.2022 00:44 5,8 C 5,0 C 2,2 C 89 % 1016,5 hPa 0,0 l/m 0 min 0 min 0 W/m 16,1 km/h (3 Bft) 97,87 %
22.02.2022 00:46 5,8 C 5,0 C 2,8 C 89 % 1016,6 hPa 0,0 l/m 0 min 0 min 0 W/m 19,3 km/h (3 Bft) 95,74 %
22.02.2022 00:48 5,8 C 5,0 C 2,2 C 89 % 1016,8 hPa 0,0 l/m 0 min 0 min 0 W/m 19,3 km/h (3 Bft) 97,87 %
22.02.2022 00:50 5,8 C 5,0 C 2,2 C 89 % 1016,7 hPa 0,0 l/m 0 min 0 min 0 W/m 12,9 km/h (3 Bft) 97,87 %
22.02.2022 00:52 5,8 C 5,0 C 2,8 C 89 % 1016,7 hPa 0,0 l/m 0 min 0 min 0 W/m 25,7 km/h (4 Bft) 97,87 %
22.02.2022 00:54 5,8 C 5,0 C 2,8 C 89 % 1016,7 hPa 0,0 l/m 0 min 0 min 0 W/m 12,9 km/h (3 Bft) 97,83 %
22.02.2022 00:56 5,8 C 5,0 C 2,8 C 89 % 1016,8 hPa 0,0 l/m 0 min 0 min 0 W/m 19,3 km/h (3 Bft) 95,74 %
22.02.2022 00:58 5,8 C 5,0 C 2,8 C 89 % 1016,8 hPa 0,0 l/m 0 min 0 min 0 W/m 22,5 km/h (4 Bft) 100,00 %
22.02.2022 01:00 5,8 C 5,0 C 2,8 C 89 % 1016,8 hPa 0,0 l/m 0 min 0 min 0 W/m 9,7 km/h (2 Bft) 100,00 %
22.02.2022 01:02 5,8 C 5,0 C 2,8 C 89 % 1016,8 hPa 0,0 l/m 0 min 0 min 0 W/m 12,9 km/h (3 Bft) 97,87 %
22.02.2022 01:04 5,8 C 5,0 C 2,2 C 89 % 1016,8 hPa 0,0 l/m 0 min 0 min 0 W/m 16,1 km/h (3 Bft) 100,00 %
22.02.2022 01:06 5,8 C 5,0 C 2,2 C 89 % 1016,8 hPa 0,0 l/m 0 min 0 min 0 W/m 22,5 km/h (4 Bft) 97,83 %
22.02.2022 01:08 5,8 C 5,0 C 2,2 C 89 % 1016,8 hPa 0,0 l/m 0 min 0 min 0 W/m 12,9 km/h (3 Bft) 100,00 %
22.02.2022 01:10 5,8 C 5,0 C 2,2 C 89 % 1016,9 hPa 0,0 l/m 0 min 0 min 0 W/m 12,9 km/h (3 Bft) 100,00 %
22.02.2022 01:12 5,7 C 5,0 C 2,2 C 89 % 1016,9 hPa 0,0 l/m 0 min 0 min 0 W/m 12,9 km/h (3 Bft) 95,74 %
22.02.2022 01:14 5,7 C 5,0 C 2,2 C 89 % 1016,9 hPa 0,0 l/m 0 min 0 min 0 W/m 16,1 km/h (3 Bft) 93,62 %
22.02.2022 01:16 5,7 C 5,0 C 2,2 C 89 % 1017,0 hPa 0,0 l/m 0 min 0 min 0 W/m 12,9 km/h (3 Bft) 51,28 %
22.02.2022 01:18 5,7 C 5,0 C 2,2 C 89 % 1017,0 hPa 0,0 l/m 0 min 0 min 0 W/m 22,5 km/h (4 Bft) 97,87 %
22.02.2022 01:20 5,7 C 5,0 C 2,2 C 89 % 1017,0 hPa 0,0 l/m 0 min 0 min 0 W/m 22,5 km/h (4 Bft) 95,74 %
22.02.2022 01:22 5,6 C 5,0 C 2,2 C 89 % 1017,0 hPa 0,0 l/m 0 min 0 min 0 W/m 16,1 km/h (3 Bft) 97,87 %
22.02.2022 01:24 5,6 C 5,0 C 2,2 C 89 % 1017,1 hPa 0,0 l/m 0 min 0 min 0 W/m 16,1 km/h (3 Bft) 95,74 %
22.02.2022 01:26 5,6 C 5,0 C 2,2 C 89 % 1017,1 hPa 0,0 l/m 0 min 0 min 0 W/m 19,3 km/h (3 Bft) 95,74 %
22.02.2022 01:28 5,6 C 5,0 C 2,2 C 89 % 1017,2 hPa 0,0 l/m 0 min 0 min 0 W/m 19,3 km/h (3 Bft) 91,30 %
22.02.2022 01:30 5,6 C 5,0 C 2,2 C 89 % 1017,2 hPa 0,0 l/m 0 min 0 min 0 W/m 16,1 km/h (3 Bft) 95,74 %
22.02.2022 01:32 5,6 C 5,0 C 2,2 C 89 % 1017,3 hPa 0,0 l/m 0 min 0 min 0 W/m 22,5 km/h (4 Bft) 93,62 %
22.02.2022 01:34 5,6 C 5,0 C 2,2 C 89 % 1017,3 hPa 0,0 l/m 0 min 0 min 0 W/m 29,0 km/h (5 Bft) 93,62 %
22.02.2022 01:36 5,6 C 5,0 C 2,2 C 89 % 1017,4 hPa 0,0 l/m 0 min 0 min 0 W/m 16,1 km/h (3 Bft) 95,74 %
22.02.2022 01:38 5,6 C 5,0 C 2,2 C 89 % 1017,4 hPa 0,0 l/m 0 min 0 min 0 W/m 16,1 km/h (3 Bft) 93,62 %
22.02.2022 01:40 5,6 C 5,0 C 2,2 C 89 % 1017,5 hPa 0,0 l/m 0 min 0 min 0 W/m 19,3 km/h (3 Bft) 95,65 %
22.02.2022 01:42 5,6 C 5,0 C 2,2 C 89 % 1017,5 hPa 0,0 l/m 0 min 0 min 0 W/m 19,3 km/h (3 Bft) 95,74 %
22.02.2022 01:44 5,5 C 5,0 C 2,2 C 89 % 1017,6 hPa 0,0 l/m 0 min 0 min 0 W/m 25,7 km/h (4 Bft) 93,62 %
22.02.2022 01:46 5,5 C 5,0 C 2,2 C 89 % 1017,5 hPa 0,0 l/m 0 min 0 min 0 W/m 19,3 km/h (3 Bft) 95,74 %
22.02.2022 01:48 5,5 C 5,0 C 2,2 C 90 % 1017,5 hPa 0,0 l/m 0 min 0 min 0 W/m 19,3 km/h (3 Bft) 100,00 %
22.02.2022 01:50 5,5 C 5,0 C 2,2 C 90 % 1017,5 hPa 0,0 l/m 0 min 0 min 0 W/m 16,1 km/h (3 Bft) 97,87 %
22.02.2022 01:52 5,4 C 5,0 C 2,2 C 90 % 1017,4 hPa 0,0 l/m 0 min 0 min 0 W/m 12,9 km/h (3 Bft) 97,83 %
22.02.2022 01:54 5,4 C 5,0 C 2,2 C 90 % 1017,5 hPa 0,0 l/m 0 min 0 min 0 W/m 16,1 km/h (3 Bft) 97,87 %
22.02.2022 01:56 5,4 C 5,0 C 2,2 C 90 % 1017,6 hPa 0,0 l/m 0 min 0 min 0 W/m 19,3 km/h (3 Bft) 97,87 %
22.02.2022 01:58 5,4 C 5,0 C 2,2 C 90 % 1017,5 hPa 0,0 l/m 0 min 0 min 0 W/m 19,3 km/h (3 Bft) 95,74 %
22.02.2022 02:00 5,4 C 5,0 C 2,2 C 90 % 1017,5 hPa 0,0 l/m 0 min 0 min 0 W/m 16,1 km/h (3 Bft) 97,87 %
22.02.2022 02:02 5,4 C 5,0 C 2,2 C 90 % 1017,5 hPa 0,0 l/m 0 min 0 min 0 W/m 22,5 km/h (4 Bft) 97,83 %
22.02.2022 02:04 5,4 C 5,0 C 2,2 C 90 % 1017,5 hPa 0,0 l/m 0 min 0 min 0 W/m 12,9 km/h (3 Bft) 97,87 %
22.02.2022 02:06 5,4 C 4,4 C 2,2 C 90 % 1017,5 hPa 0,0 l/m 0 min 0 min 0 W/m 19,3 km/h (3 Bft) 100,00 %
22.02.2022 02:08 5,4 C 4,4 C 2,2 C 90 % 1017,5 hPa 0,0 l/m 0 min 0 min 0 W/m 12,9 km/h (3 Bft) 100,00 %
22.02.2022 02:10 5,4 C 5,0 C 2,2 C 90 % 1017,6 hPa 0,0 l/m 0 min 0 min 0 W/m 22,5 km/h (4 Bft) 97,87 %
22.02.2022 02:12 5,4 C 4,4 C 2,2 C 90 % 1017,6 hPa 0,0 l/m 0 min 0 min 0 W/m 19,3 km/h (3 Bft) 97,87 %
22.02.2022 02:14 5,3 C 4,4 C 2,2 C 90 % 1017,5 hPa 0,0 l/m 0 min 0 min 0 W/m 16,1 km/h (3 Bft) 97,83 %
22.02.2022 02:16 5,3 C 4,4 C 2,2 C 90 % 1017,6 hPa 0,0 l/m 0 min 0 min 0 W/m 12,9 km/h (3 Bft) 100,00 %
22.02.2022 02:18 5,3 C 4,4 C 2,2 C 90 % 1017,6 hPa 0,0 l/m 0 min 0 min 0 W/m 16,1 km/h (3 Bft) 100,00 %
22.02.2022 02:20 5,3 C 4,4 C 1,7 C 90 % 1017,6 hPa 0,0 l/m 0 min 0 min 0 W/m 19,3 km/h (3 Bft) 100,00 %
22.02.2022 02:22 5,3 C 4,4 C 2,2 C 90 % 1017,6 hPa 0,0 l/m 0 min 0 min 0 W/m 12,9 km/h (3 Bft) 50,00 %
22.02.2022 02:24 5,2 C 4,4 C 1,7 C 90 % 1017,7 hPa 0,0 l/m 0 min 0 min 0 W/m 12,9 km/h (3 Bft) 97,06 %
22.02.2022 02:26 5,2 C 4,4 C 1,7 C 90 % 1017,7 hPa 0,0 l/m 0 min 0 min 0 W/m 9,7 km/h (2 Bft) 97,83 %
22.02.2022 02:28 5,2 C 4,4 C 1,7 C 90 % 1017,7 hPa 0,0 l/m 0 min 0 min 0 W/m 16,1 km/h (3 Bft) 100,00 %
22.02.2022 02:30 5,2 C 4,4 C 1,7 C 90 % 1017,8 hPa 0,0 l/m 0 min 0 min 0 W/m 12,9 km/h (3 Bft) 100,00 %
22.02.2022 02:32 5,2 C 4,4 C 1,7 C 90 % 1017,8 hPa 0,0 l/m 0 min 0 min 0 W/m 16,1 km/h (3 Bft) 100,00 %
22.02.2022 02:34 5,2 C 4,4 C 1,7 C 90 % 1017,9 hPa 0,0 l/m 0 min 0 min 0 W/m 12,9 km/h (3 Bft) 100,00 %
22.02.2022 02:36 5,2 C 4,4 C 1,7 C 90 % 1017,9 hPa 0,0 l/m 0 min 0 min 0 W/m 12,9 km/h (3 Bft) 97,87 %
22.02.2022 02:38 5,2 C 4,4 C 1,7 C 90 % 1018,0 hPa 0,0 l/m 0 min 0 min 0 W/m 16,1 km/h (3 Bft) 100,00 %
22.02.2022 02:40 5,1 C 4,4 C 1,7 C 90 % 1018,1 hPa 0,0 l/m 0 min 0 min 0 W/m 12,9 km/h (3 Bft) 100,00 %
22.02.2022 02:42 5,1 C 4,4 C 1,7 C 90 % 1018,1 hPa 0,0 l/m 0 min 0 min 0 W/m 12,9 km/h (3 Bft) 100,00 %
22.02.2022 02:44 5,2 C 4,4 C 1,7 C 90 % 1018,1 hPa 0,0 l/m 0 min 0 min 0 W/m 22,5 km/h (4 Bft) 97,87 %
22.02.2022 02:46 5,2 C 4,4 C 1,7 C 90 % 1018,2 hPa 0,0 l/m 0 min 0 min 0 W/m 16,1 km/h (3 Bft) 97,87 %
22.02.2022 02:48 5,2 C 4,4 C 2,2 C 90 % 1018,1 hPa 0,0 l/m 0 min 0 min 0 W/m 12,9 km/h (3 Bft) 95,74 %
22.02.2022 02:50 5,2 C 4,4 C 2,2 C 90 % 1018,1 hPa 0,0 l/m 0 min 0 min 0 W/m 6,4 km/h (2 Bft) 97,83 %
22.02.2022 02:52 5,2 C 4,4 C 2,2 C 91 % 1018,1 hPa 0,0 l/m 0 min 0 min 0 W/m 16,1 km/h (3 Bft) 97,87 %
22.02.2022 02:54 5,2 C 4,4 C 2,2 C 91 % 1018,2 hPa 0,0 l/m 0 min 0 min 0 W/m 19,3 km/h (3 Bft) 97,87 %
22.02.2022 02:56 5,2 C 4,4 C 2,2 C 91 % 1018,2 hPa 0,0 l/m 0 min 0 min 0 W/m 16,1 km/h (3 Bft) 97,87 %
22.02.2022 02:58 5,2 C 4,4 C 2,2 C 91 % 1018,2 hPa 0,0 l/m 0 min 0 min 0 W/m 16,1 km/h (3 Bft) 97,87 %
22.02.2022 03:00 5,2 C 4,4 C 2,2 C 91 % 1018,2 hPa 0,0 l/m 0 min 0 min 0 W/m 19,3 km/h (3 Bft) 95,74 %
22.02.2022 03:02 5,2 C 4,4 C 2,2 C 91 % 1018,2 hPa 0,0 l/m 0 min 0 min 0 W/m 22,5 km/h (4 Bft) 95,65 %
22.02.2022 03:04 5,2 C 4,4 C 2,2 C 91 % 1018,3 hPa 0,0 l/m 0 min 0 min 0 W/m 16,1 km/h (3 Bft) 95,74 %
22.02.2022 03:06 5,2 C 4,4 C 2,2 C 91 % 1018,4 hPa 0,0 l/m 0 min 0 min 0 W/m 12,9 km/h (3 Bft) 97,87 %
22.02.2022 03:08 5,2 C 4,4 C 2,2 C 91 % 1018,4 hPa 0,0 l/m 0 min 0 min 0 W/m 12,9 km/h (3 Bft) 95,74 %
22.02.2022 03:10 5,2 C 4,4 C 1,7 C 91 % 1018,3 hPa 0,0 l/m 0 min 0 min 0 W/m 12,9 km/h (3 Bft) 95,74 %
22.02.2022 03:12 5,2 C 4,4 C 1,7 C 91 % 1018,3 hPa 0,0 l/m 0 min 0 min 0 W/m 12,9 km/h (3 Bft) 95,65 %
22.02.2022 03:14 5,2 C 4,4 C 1,7 C 91 % 1018,3 hPa 0,0 l/m 0 min 0 min 0 W/m 9,7 km/h (2 Bft) 95,74 %
22.02.2022 03:16 5,1 C 4,4 C 1,7 C 91 % 1018,4 hPa 0,0 l/m 0 min 0 min 0 W/m 12,9 km/h (3 Bft) 95,74 %
22.02.2022 03:18 5,1 C 4,4 C 1,7 C 91 % 1018,4 hPa 0,0 l/m 0 min 0 min 0 W/m 12,9 km/h (3 Bft) 93,62 %
22.02.2022 03:20 5,1 C 4,4 C 1,7 C 91 % 1018,4 hPa 0,0 l/m 0 min 0 min 0 W/m 12,9 km/h (3 Bft) 95,74 %
22.02.2022 03:22 5,1 C 4,4 C 1,7 C 91 % 1018,3 hPa 0,0 l/m 0 min 0 min 0 W/m 12,9 km/h (3 Bft) 95,74 %
22.02.2022 03:24 5,1 C 4,4 C 1,7 C 91 % 1018,4 hPa 0,0 l/m 0 min 0 min 0 W/m 9,7 km/h (2 Bft) 97,83 %
22.02.2022 03:26 5,1 C 4,4 C 1,7 C 91 % 1018,4 hPa 0,0 l/m 0 min 0 min 0 W/m 12,9 km/h (3 Bft) 65,96 %
22.02.2022 03:28 5,1 C 4,4 C 1,7 C 91 % 1018,4 hPa 0,0 l/m 0 min 0 min 0 W/m 9,7 km/h (2 Bft) 84,44 %
22.02.2022 03:30 5,0 C 3,9 C 1,7 C 91 % 1018,4 hPa 0,0 l/m 0 min 0 min 0 W/m 12,9 km/h (3 Bft) 97,87 %
22.02.2022 03:32 4,9 C 3,9 C 1,7 C 91 % 1018,4 hPa 0,0 l/m 0 min 0 min 0 W/m 12,9 km/h (3 Bft) 97,87 %
22.02.2022 03:34 4,9 C 3,9 C 1,7 C 91 % 1018,4 hPa 0,0 l/m 0 min 0 min 0 W/m 12,9 km/h (3 Bft) 97,87 %
22.02.2022 03:36 4,9 C 3,9 C 1,7 C 91 % 1018,4 hPa 0,0 l/m 0 min 0 min 0 W/m 9,7 km/h (2 Bft) 95,65 %
22.02.2022 03:38 4,8 C 3,9 C 1,7 C 91 % 1018,4 hPa 0,0 l/m 0 min 0 min 0 W/m 12,9 km/h (3 Bft) 97,87 %
22.02.2022 03:40 4,8 C 3,9 C 1,7 C 91 % 1018,4 hPa 0,0 l/m 0 min 0 min 0 W/m 9,7 km/h (2 Bft) 100,00 %
22.02.2022 03:42 4,8 C 3,9 C 1,7 C 91 % 1018,4 hPa 0,0 l/m 0 min 0 min 0 W/m 9,7 km/h (2 Bft) 100,00 %
22.02.2022 03:44 4,8 C 3,9 C 1,7 C 91 % 1018,4 hPa 0,0 l/m 0 min 0 min 0 W/m 16,1 km/h (3 Bft) 100,00 %
22.02.2022 03:46 4,7 C 3,9 C 1,7 C 91 % 1018,3 hPa 0,0 l/m 0 min 0 min 0 W/m 9,7 km/h (2 Bft) 100,00 %
22.02.2022 03:48 4,7 C 3,9 C 1,7 C 92 % 1018,4 hPa 0,0 l/m 0 min 0 min 0 W/m 6,4 km/h (2 Bft) 100,00 %
22.02.2022 03:50 4,7 C 3,9 C 1,7 C 92 % 1018,4 hPa 0,0 l/m 0 min 0 min 0 W/m 12,9 km/h (3 Bft) 100,00 %
22.02.2022 03:52 4,7 C 3,9 C 1,7 C 92 % 1018,4 hPa 0,0 l/m 0 min 0 min 0 W/m 16,1 km/h (3 Bft) 100,00 %
22.02.2022 03:54 4,7 C 3,9 C 1,7 C 92 % 1018,5 hPa 0,0 l/m 0 min 0 min 0 W/m 6,4 km/h (2 Bft) 100,00 %
22.02.2022 03:56 4,6 C 3,9 C 1,7 C 92 % 1018,4 hPa 0,0 l/m 0 min 0 min 0 W/m 6,4 km/h (2 Bft) 100,00 %
22.02.2022 03:58 4,6 C 3,9 C 1,7 C 92 % 1018,5 hPa 0,0 l/m 0 min 0 min 0 W/m 12,9 km/h (3 Bft) 100,00 %
22.02.2022 04:00 4,6 C 3,9 C 1,7 C 92 % 1018,4 hPa 0,0 l/m 0 min 0 min 0 W/m 6,4 km/h (2 Bft) 97,83 %
22.02.2022 04:02 4,6 C 3,9 C 1,7 C 92 % 1018,4 hPa 0,0 l/m 0 min 0 min 0 W/m 6,4 km/h (2 Bft) 100,00 %
22.02.2022 04:04 4,6 C 3,9 C 1,7 C 92 % 1018,5 hPa 0,0 l/m 0 min 0 min 0 W/m 19,3 km/h (3 Bft) 100,00 %
22.02.2022 04:06 4,5 C 3,9 C 1,7 C 92 % 1018,6 hPa 0,0 l/m 0 min 0 min 0 W/m 9,7 km/h (2 Bft) 100,00 %
22.02.2022 04:08 4,5 C 3,9 C 1,1 C 92 % 1018,4 hPa 0,0 l/m 0 min 0 min 0 W/m 16,1 km/h (3 Bft) 95,74 %
22.02.2022 04:10 4,5 C 3,9 C 1,1 C 92 % 1018,4 hPa 0,0 l/m 0 min 0 min 0 W/m 12,9 km/h (3 Bft) 97,83 %
22.02.2022 04:12 4,4 C 3,9 C 1,1 C 92 % 1018,3 hPa 0,0 l/m 0 min 0 min 0 W/m 9,7 km/h (2 Bft) 100,00 %
22.02.2022 04:14 4,4 C 3,9 C 1,1 C 92 % 1018,4 hPa 0,0 l/m 0 min 0 min 0 W/m 12,9 km/h (3 Bft) 100,00 %
22.02.2022 04:16 4,4 C 3,3 C 1,1 C 92 % 1018,4 hPa 0,0 l/m 0 min 0 min 0 W/m 6,4 km/h (2 Bft) 97,87 %
22.02.2022 04:18 4,3 C 3,3 C 1,1 C 92 % 1018,3 hPa 0,0 l/m 0 min 0 min 0 W/m 12,9 km/h (3 Bft) 97,87 %
22.02.2022 04:20 4,3 C 3,3 C 1,1 C 92 % 1018,3 hPa 0,0 l/m 0 min 0 min 0 W/m 9,7 km/h (2 Bft) 95,74 %
22.02.2022 04:22 4,3 C 3,3 C 1,1 C 92 % 1018,3 hPa 0,0 l/m 0 min 0 min 0 W/m 9,7 km/h (2 Bft) 97,83 %
22.02.2022 04:24 4,3 C 3,3 C 1,1 C 92 % 1018,4 hPa 0,0 l/m 0 min 0 min 0 W/m 6,4 km/h (2 Bft) 97,87 %
22.02.2022 04:26 4,3 C 3,3 C 1,1 C 92 % 1018,5 hPa 0,0 l/m 0 min 0 min 0 W/m 6,4 km/h (2 Bft) 97,87 %
22.02.2022 04:28 4,2 C 3,3 C 1,1 C 92 % 1018,6 hPa 0,0 l/m 0 min 0 min 0 W/m 9,7 km/h (2 Bft) 97,87 %
22.02.2022 04:30 4,2 C 3,3 C 1,1 C 92 % 1018,6 hPa 0,0 l/m 0 min 0 min 0 W/m 6,4 km/h (2 Bft) 95,74 %
22.02.2022 04:32 4,2 C 3,3 C 1,1 C 93 % 1018,6 hPa 0,0 l/m 0 min 0 min 0 W/m 9,7 km/h (2 Bft) 97,87 %
22.02.2022 04:34 4,2 C 3,3 C 1,1 C 93 % 1018,7 hPa 0,0 l/m 0 min 0 min 0 W/m 6,4 km/h (2 Bft) 95,65 %
22.02.2022 04:36 4,2 C 3,3 C 1,1 C 92 % 1018,8 hPa 0,0 l/m 0 min 0 min 0 W/m 9,7 km/h (2 Bft) 97,87 %
22.02.2022 04:38 4,2 C 3,3 C 1,1 C 93 % 1018,7 hPa 0,0 l/m 0 min 0 min 0 W/m 6,4 km/h (2 Bft) 97,87 %
22.02.2022 04:40 4,2 C 3,3 C 1,1 C 93 % 1018,8 hPa 0,0 l/m 0 min 0 min 0 W/m 9,7 km/h (2 Bft) 93,62 %
22.02.2022 04:42 4,2 C 3,9 C 1,1 C 93 % 1018,7 hPa 0,0 l/m 0 min 0 min 0 W/m 16,1 km/h (3 Bft) 97,87 %
22.02.2022 04:44 4,2 C 3,9 C 1,1 C 93 % 1018,7 hPa 0,0 l/m 0 min 0 min 0 W/m 12,9 km/h (3 Bft) 97,87 %
22.02.2022 04:46 4,2 C 3,9 C 1,1 C 93 % 1018,7 hPa 0,0 l/m 0 min 0 min 0 W/m 9,7 km/h (2 Bft) 97,83 %
22.02.2022 04:48 4,2 C 3,3 C 1,1 C 93 % 1018,7 hPa 0,0 l/m 0 min 0 min 0 W/m 6,4 km/h (2 Bft) 97,87 %
22.02.2022 04:50 4,3 C 3,9 C 1,1 C 93 % 1018,7 hPa 0,0 l/m 0 min 0 min 0 W/m 12,9 km/h (3 Bft) 97,87 %
22.02.2022 04:52 4,3 C 3,9 C 1,1 C 93 % 1018,7 hPa 0,0 l/m 0 min 0 min 0 W/m 6,4 km/h (2 Bft) 95,74 %
22.02.2022 04:54 4,3 C 3,9 C 1,1 C 93 % 1018,7 hPa 0,0 l/m 0 min 0 min 0 W/m 12,9 km/h (3 Bft) 93,62 %
22.02.2022 04:56 4,3 C 3,9 C 1,1 C 93 % 1018,7 hPa 0,0 l/m 0 min 0 min 0 W/m 12,9 km/h (3 Bft) 95,74 %
22.02.2022 04:58 4,3 C 3,9 C 1,1 C 93 % 1018,7 hPa 0,0 l/m 0 min 0 min 0 W/m 16,1 km/h (3 Bft) 97,83 %
22.02.2022 05:00 4,3 C 3,9 C 1,1 C 93 % 1018,8 hPa 0,0 l/m 0 min 0 min 0 W/m 12,9 km/h (3 Bft) 95,74 %
22.02.2022 05:02 4,3 C 3,9 C 1,1 C 93 % 1018,8 hPa 0,0 l/m 0 min 0 min 0 W/m 6,4 km/h (2 Bft) 93,62 %
22.02.2022 05:04 4,3 C 3,3 C 1,1 C 93 % 1018,7 hPa 0,0 l/m 0 min 0 min 0 W/m 9,7 km/h (2 Bft) 95,74 %
22.02.2022 05:06 4,3 C 3,3 C 1,1 C 93 % 1018,9 hPa 0,0 l/m 0 min 0 min 0 W/m 6,4 km/h (2 Bft) 93,62 %
22.02.2022 05:08 4,3 C 3,3 C 1,1 C 93 % 1018,9 hPa 0,0 l/m 0 min 0 min 0 W/m 6,4 km/h (2 Bft) 93,48 %
22.02.2022 05:10 4,3 C 3,3 C 1,1 C 93 % 1018,9 hPa 0,0 l/m 0 min 0 min 0 W/m 12,9 km/h (3 Bft) 95,74 %
22.02.2022 05:12 4,2 C 3,3 C 1,1 C 93 % 1018,9 hPa 0,0 l/m 0 min 0 min 0 W/m 6,4 km/h (2 Bft) 93,62 %
22.02.2022 05:14 4,2 C 3,3 C 1,1 C 93 % 1018,9 hPa 0,0 l/m 0 min 0 min 0 W/m 6,4 km/h (2 Bft) 93,62 %
22.02.2022 05:16 4,2 C 3,3 C 1,1 C 93 % 1018,9 hPa 0,0 l/m 0 min 0 min 0 W/m 6,4 km/h (2 Bft) 95,74 %
22.02.2022 05:18 4,1 C 3,3 C 1,1 C 93 % 1019,0 hPa 0,0 l/m 0 min 0 min 0 W/m 12,9 km/h (3 Bft) 95,74 %
22.02.2022 05:20 4,1 C 3,3 C 1,1 C 93 % 1019,0 hPa 0,0 l/m 0 min 0 min 0 W/m 9,7 km/h (2 Bft) 93,48 %
22.02.2022 05:22 4,1 C 3,3 C 1,1 C 93 % 1019,1 hPa 0,0 l/m 0 min 0 min 0 W/m 12,9 km/h (3 Bft) 93,62 %
22.02.2022 05:24 4,1 C 3,3 C 1,1 C 93 % 1019,1 hPa 0,0 l/m 0 min 0 min 0 W/m 12,9 km/h (3 Bft) 95,74 %
22.02.2022 05:26 4,1 C 3,3 C 1,1 C 93 % 1019,1 hPa 0,0 l/m 0 min 0 min 0 W/m 12,9 km/h (3 Bft) 95,74 %
22.02.2022 05:28 4,0 C 3,3 C 1,1 C 93 % 1019,1 hPa 0,0 l/m 0 min 0 min 0 W/m 19,3 km/h (3 Bft) 95,74 %
22.02.2022 05:30 4,0 C 3,3 C 1,1 C 94 % 1019,1 hPa 0,0 l/m 0 min 0 min 0 W/m 6,4 km/h (2 Bft) 97,87 %
22.02.2022 05:32 4,0 C 3,3 C 1,1 C 94 % 1019,1 hPa 0,0 l/m 0 min 0 min 0 W/m 6,4 km/h (2 Bft) 97,83 %
22.02.2022 05:34 4,0 C 3,3 C 1,1 C 93 % 1019,1 hPa 0,0 l/m 0 min 0 min 0 W/m 12,9 km/h (3 Bft) 95,74 %
22.02.2022 05:36 4,0 C 3,3 C 1,1 C 94 % 1019,1 hPa 0,0 l/m 0 min 0 min 0 W/m 9,7 km/h (2 Bft) 97,87 %
22.02.2022 05:38 4,0 C 3,3 C 1,1 C 94 % 1019,1 hPa 0,0 l/m 0 min 0 min 0 W/m 6,4 km/h (2 Bft) 97,87 %
22.02.2022 05:40 3,9 C 3,3 C 1,1 C 94 % 1019,0 hPa 0,0 l/m 0 min 0 min 0 W/m 6,4 km/h (2 Bft) 100,00 %
22.02.2022 05:42 3,9 C 3,3 C 1,1 C 94 % 1019,1 hPa 0,0 l/m 0 min 0 min 0 W/m 9,7 km/h (2 Bft) 100,00 %
22.02.2022 05:44 3,9 C 3,3 C 1,1 C 94 % 1019,1 hPa 0,0 l/m 0 min 0 min 0 W/m 12,9 km/h (3 Bft) 97,83 %
22.02.2022 05:46 3,9 C 3,3 C 1,1 C 94 % 1019,1 hPa 0,0 l/m 0 min 0 min 0 W/m 9,7 km/h (2 Bft) 100,00 %
22.02.2022 05:48 3,9 C 3,3 C 1,1 C 94 % 1019,2 hPa 0,0 l/m 0 min 0 min 0 W/m 12,9 km/h (3 Bft) 100,00 %
22.02.2022 05:50 3,9 C 3,3 C 1,1 C 94 % 1019,2 hPa 0,0 l/m 0 min 0 min 0 W/m 9,7 km/h (2 Bft) 100,00 %
22.02.2022 05:52 3,9 C 3,3 C 1,1 C 94 % 1019,2 hPa 0,0 l/m 0 min 0 min 0 W/m 6,4 km/h (2 Bft) 100,00 %
22.02.2022 05:54 3,9 C 3,3 C 1,1 C 94 % 1019,2 hPa 0,0 l/m 0 min 0 min 0 W/m 16,1 km/h (3 Bft) 100,00 %
22.02.2022 05:56 3,9 C 3,3 C 1,1 C 94 % 1019,2 hPa 0,0 l/m 0 min 0 min 0 W/m 6,4 km/h (2 Bft) 100,00 %
22.02.2022 05:58 3,9 C 3,3 C 1,1 C 94 % 1019,2 hPa 0,0 l/m 0 min 0 min 0 W/m 9,7 km/h (2 Bft) 100,00 %
22.02.2022 06:00 3,8 C 2,8 C 1,1 C 94 % 1019,3 hPa 0,0 l/m 0 min 0 min 0 W/m 6,4 km/h (2 Bft) 97,87 %
22.02.2022 06:02 3,8 C 2,8 C 1,1 C 94 % 1019,3 hPa 0,0 l/m 0 min 0 min 0 W/m 9,7 km/h (2 Bft) 100,00 %
22.02.2022 06:04 3,8 C 2,8 C 1,1 C 94 % 1019,3 hPa 0,0 l/m 0 min 0 min 0 W/m 12,9 km/h (3 Bft) 100,00 %
22.02.2022 06:08 3,8 C 2,8 C 0,6 C 94 % 1019,2 hPa 0,0 l/m 0 min 0 min 0 W/m 9,7 km/h (2 Bft) 100,00 %
22.02.2022 06:10 3,8 C 2,8 C 0,6 C 94 % 1019,2 hPa 0,0 l/m 0 min 0 min 0 W/m 6,4 km/h (2 Bft) 100,00 %
22.02.2022 06:12 3,8 C 2,8 C 0,6 C 94 % 1019,3 hPa 0,0 l/m 0 min 0 min 0 W/m 6,4 km/h (2 Bft) 100,00 %
22.02.2022 06:14 3,8 C 2,8 C 0,6 C 94 % 1019,2 hPa 0,0 l/m 0 min 0 min 0 W/m 6,4 km/h (2 Bft) 97,87 %
22.02.2022 06:16 3,7 C 2,8 C 0,6 C 94 % 1019,2 hPa 0,0 l/m 0 min 0 min 0 W/m 6,4 km/h (2 Bft) 97,87 %
22.02.2022 06:18 3,7 C 2,8 C 0,6 C 94 % 1019,2 hPa 0,0 l/m 0 min 0 min 0 W/m 6,4 km/h (2 Bft) 100,00 %
22.02.2022 06:20 3,7 C 2,8 C 0,6 C 94 % 1019,3 hPa 0,0 l/m 0 min 0 min 0 W/m 9,7 km/h (2 Bft) 100,00 %
22.02.2022 06:22 3,7 C 2,8 C 0,6 C 94 % 1019,3 hPa 0,0 l/m 0 min 0 min 0 W/m 6,4 km/h (2 Bft) 100,00 %
22.02.2022 06:24 3,7 C 2,8 C 0,6 C 94 % 1019,2 hPa 0,0 l/m 0 min 0 min 0 W/m 6,4 km/h (2 Bft) 48,72 %
22.02.2022 06:26 3,7 C 2,8 C 0,6 C 95 % 1019,2 hPa 0,0 l/m 0 min 0 min 0 W/m 6,4 km/h (2 Bft) 100,00 %
22.02.2022 06:28 3,7 C 2,8 C 0,6 C 95 % 1019,2 hPa 0,0 l/m 0 min 0 min 0 W/m 12,9 km/h (3 Bft) 100,00 %
22.02.2022 06:30 3,7 C 2,8 C 0,6 C 95 % 1019,2 hPa 0,0 l/m 0 min 0 min 0 W/m 6,4 km/h (2 Bft) 100,00 %
22.02.2022 06:32 3,7 C 2,8 C 0,6 C 95 % 1019,2 hPa 0,0 l/m 0 min 0 min 0 W/m 12,9 km/h (3 Bft) 100,00 %
22.02.2022 06:34 3,7 C 2,8 C 0,6 C 95 % 1019,3 hPa 0,0 l/m 0 min 0 min 0 W/m 6,4 km/h (2 Bft) 100,00 %
22.02.2022 06:36 3,7 C 2,8 C 0,6 C 95 % 1019,2 hPa 0,0 l/m 0 min 0 min 0 W/m 6,4 km/h (2 Bft) 97,87 %
22.02.2022 06:38 3,7 C 2,8 C 0,6 C 95 % 1019,3 hPa 0,0 l/m 0 min 0 min 0 W/m 6,4 km/h (2 Bft) 97,87 %
22.02.2022 06:40 3,6 C 2,8 C 0,6 C 95 % 1019,2 hPa 0,0 l/m 0 min 0 min 0 W/m 6,4 km/h (2 Bft) 100,00 %
22.02.2022 06:42 3,6 C 2,8 C 0,6 C 95 % 1019,2 hPa 0,0 l/m 0 min 0 min 0 W/m 6,4 km/h (2 Bft) 100,00 %
22.02.2022 06:44 3,6 C 2,8 C 0,6 C 95 % 1019,3 hPa 0,0 l/m 0 min 0 min 0 W/m 6,4 km/h (2 Bft) 97,87 %
22.02.2022 06:46 3,6 C 2,8 C 0,6 C 95 % 1019,3 hPa 0,0 l/m 0 min 0 min 0 W/m 3,2 km/h (1 Bft) 97,87 %
22.02.2022 06:48 3,6 C 2,8 C 0,6 C 95 % 1019,4 hPa 0,0 l/m 0 min 0 min 0 W/m 6,4 km/h (2 Bft) 97,87 %
22.02.2022 06:50 3,6 C 2,8 C 0,6 C 95 % 1019,4 hPa 0,0 l/m 0 min 0 min 0 W/m 12,9 km/h (3 Bft) 97,87 %
22.02.2022 06:52 3,6 C 2,8 C 0,6 C 95 % 1019,4 hPa 0,0 l/m 0 min 0 min 0 W/m 6,4 km/h (2 Bft) 95,65 %
22.02.2022 06:54 3,6 C 2,8 C 0,6 C 95 % 1019,4 hPa 0,0 l/m 0 min 0 min 0 W/m 3,2 km/h (1 Bft) 97,87 %
22.02.2022 06:56 3,5 C 2,8 C 0,6 C 95 % 1019,5 hPa 0,0 l/m 0 min 0 min 0 W/m 3,2 km/h (1 Bft) 97,87 %
22.02.2022 06:58 3,5 C 2,8 C 0,6 C 95 % 1019,5 hPa 0,0 l/m 0 min 0 min 0 W/m 3,2 km/h (1 Bft) 97,87 %
22.02.2022 07:00 3,5 C 2,2 C 0,6 C 95 % 1019,5 hPa 0,0 l/m 0 min 0 min 0 W/m 6,4 km/h (2 Bft) 95,74 %
22.02.2022 07:02 3,4 C 2,2 C 0,6 C 95 % 1019,5 hPa 0,0 l/m 0 min 0 min 0 W/m 3,2 km/h (1 Bft) 95,74 %
22.02.2022 07:04 3,4 C 2,2 C 0,6 C 95 % 1019,5 hPa 0,0 l/m 0 min 0 min 0 W/m 3,2 km/h (1 Bft) 97,83 %
22.02.2022 07:06 3,4 C 2,2 C 0,6 C 95 % 1019,6 hPa 0,0 l/m 0 min 0 min 0 W/m 3,2 km/h (1 Bft) 97,87 %
22.02.2022 07:08 3,4 C 2,2 C 0,6 C 95 % 1019,6 hPa 0,0 l/m 0 min 0 min 0 W/m 6,4 km/h (2 Bft) 97,87 %
22.02.2022 07:10 3,4 C 2,2 C 0,6 C 95 % 1019,6 hPa 0,0 l/m 0 min 0 min 0 W/m 6,4 km/h (2 Bft) 97,87 %
22.02.2022 07:12 3,4 C 2,8 C 0,6 C 95 % 1019,6 hPa 0,0 l/m 0 min 0 min 0 W/m 6,4 km/h (2 Bft) 97,87 %
22.02.2022 07:14 3,4 C 2,8 C 0,6 C 95 % 1019,6 hPa 0,0 l/m 0 min 0 min 0 W/m 6,4 km/h (2 Bft) 95,74 %
22.02.2022 07:16 3,4 C 2,8 C 0,6 C 95 % 1019,6 hPa 0,0 l/m 0 min 0 min 0 W/m 6,4 km/h (2 Bft) 97,83 %
22.02.2022 07:18 3,3 C 2,2 C 0,6 C 95 % 1019,6 hPa 0,0 l/m 0 min 0 min 0 W/m 6,4 km/h (2 Bft) 97,87 %
22.02.2022 07:20 3,3 C 2,2 C 0,6 C 95 % 1019,7 hPa 0,0 l/m 0 min 0 min 0 W/m 6,4 km/h (2 Bft) 93,62 %
22.02.2022 07:22 3,3 C 2,2 C 0,6 C 95 % 1019,7 hPa 0,0 l/m 0 min 0 min 0 W/m 6,4 km/h (2 Bft) 95,74 %
22.02.2022 07:24 3,3 C 2,2 C 0,6 C 95 % 1019,7 hPa 0,0 l/m 0 min 0 min 0 W/m 9,7 km/h (2 Bft) 100,00 %
22.02.2022 07:26 3,3 C 2,2 C 0,6 C 95 % 1019,7 hPa 0,0 l/m 0 min 0 min 1 W/m 6,4 km/h (2 Bft) 95,74 %
22.02.2022 07:28 3,3 C 2,2 C 0,6 C 95 % 1019,8 hPa 0,0 l/m 0 min 0 min 6 W/m 6,4 km/h (2 Bft) 95,65 %
22.02.2022 07:30 3,3 C 2,2 C 0,6 C 95 % 1019,8 hPa 0,0 l/m 0 min 0 min 7 W/m 6,4 km/h (2 Bft) 95,74 %
22.02.2022 07:32 3,3 C 2,2 C 0,6 C 95 % 1019,8 hPa 0,0 l/m 0 min 0 min 8 W/m 12,9 km/h (3 Bft) 95,74 %
22.02.2022 07:34 3,3 C 2,8 C 0,6 C 95 % 1019,9 hPa 0,0 l/m 0 min 0 min 9 W/m 12,9 km/h (3 Bft) 91,49 %
22.02.2022 07:36 3,3 C 2,8 C 0,6 C 95 % 1019,8 hPa 0,0 l/m 0 min 0 min 9 W/m 9,7 km/h (2 Bft) 93,62 %
22.02.2022 07:38 3,3 C 2,8 C 0,6 C 95 % 1019,8 hPa 0,0 l/m 0 min 0 min 9 W/m 6,4 km/h (2 Bft) 95,74 %
22.02.2022 07:40 3,3 C 2,8 C 0,6 C 95 % 1019,8 hPa 0,0 l/m 0 min 0 min 9 W/m 6,4 km/h (2 Bft) 95,65 %
22.02.2022 07:42 3,3 C 2,8 C 0,6 C 95 % 1019,9 hPa 0,0 l/m 0 min 0 min 11 W/m 9,7 km/h (2 Bft) 95,74 %
22.02.2022 07:44 3,3 C 2,8 C 0,6 C 95 % 1019,9 hPa 0,0 l/m 0 min 0 min 11 W/m 12,9 km/h (3 Bft) 95,74 %
22.02.2022 07:46 3,4 C 2,8 C 0,6 C 95 % 1019,9 hPa 0,0 l/m 0 min 0 min 11 W/m 16,1 km/h (3 Bft) 95,74 %
22.02.2022 07:48 3,4 C 2,8 C 0,6 C 95 % 1019,9 hPa 0,0 l/m 0 min 0 min 11 W/m 6,4 km/h (2 Bft) 93,62 %
22.02.2022 07:50 3,4 C 2,8 C 0,6 C 95 % 1019,9 hPa 0,0 l/m 0 min 0 min 12 W/m 16,1 km/h (3 Bft) 93,62 %
22.02.2022 07:52 3,4 C 2,8 C 0,6 C 95 % 1020,0 hPa 0,0 l/m 0 min 0 min 12 W/m 9,7 km/h (2 Bft) 95,65 %
22.02.2022 07:54 3,4 C 2,8 C 0,6 C 95 % 1020,0 hPa 0,0 l/m 0 min 0 min 11 W/m 6,4 km/h (2 Bft) 95,74 %
22.02.2022 07:56 3,4 C 2,8 C 0,6 C 95 % 1020,0 hPa 0,0 l/m 0 min 0 min 11 W/m 3,2 km/h (1 Bft) 95,74 %
22.02.2022 07:58 3,4 C 2,8 C 0,6 C 95 % 1020,0 hPa 0,0 l/m 0 min 0 min 12 W/m 0,0 km/h (0 Bft) 93,62 %
22.02.2022 08:00 3,3 C 2,8 C 0,6 C 95 % 1019,9 hPa 0,0 l/m 0 min 0 min 12 W/m 0,0 km/h (0 Bft) 95,74 %
22.02.2022 08:02 3,3 C 2,8 C 0,6 C 95 % 1020,0 hPa 0,0 l/m 0 min 0 min 14 W/m 0,0 km/h (0 Bft) 93,48 %
22.02.2022 08:04 3,3 C 2,8 C 0,6 C 96 % 1020,0 hPa 0,0 l/m 0 min 0 min 20 W/m 12,9 km/h (3 Bft) 94,00 %
22.02.2022 08:06 3,3 C 2,8 C 0,6 C 96 % 1020,0 hPa 0,0 l/m 0 min 0 min 24 W/m 6,4 km/h (2 Bft) 93,62 %
22.02.2022 08:08 3,3 C 2,8 C 0,6 C 96 % 1019,9 hPa 0,0 l/m 0 min 0 min 21 W/m 6,4 km/h (2 Bft) 97,92 %
22.02.2022 08:10 3,3 C 2,8 C 0,6 C 96 % 1019,9 hPa 0,0 l/m 0 min 0 min 19 W/m 9,7 km/h (2 Bft) 97,87 %
22.02.2022 08:12 3,3 C 2,8 C 0,6 C 95 % 1020,0 hPa 0,0 l/m 0 min 0 min 21 W/m 6,4 km/h (2 Bft) 56,52 %
22.02.2022 08:14 3,4 C 2,8 C 0,6 C 95 % 1020,0 hPa 0,0 l/m 0 min 0 min 22 W/m 6,4 km/h (2 Bft) 97,87 %
22.02.2022 08:16 3,3 C 2,8 C 0,6 C 95 % 1020,0 hPa 0,0 l/m 0 min 0 min 22 W/m 6,4 km/h (2 Bft) 97,87 %
22.02.2022 08:18 3,4 C 2,8 C 0,6 C 95 % 1020,0 hPa 0,0 l/m 0 min 0 min 29 W/m 6,4 km/h (2 Bft) 97,87 %
22.02.2022 08:20 3,4 C 2,8 C 0,6 C 96 % 1020,0 hPa 0,0 l/m 0 min 0 min 38 W/m 6,4 km/h (2 Bft) 100,00 %
22.02.2022 08:22 3,4 C 3,3 C 1,1 C 96 % 1020,1 hPa 0,0 l/m 0 min 0 min 36 W/m 6,4 km/h (2 Bft) 97,67 %
22.02.2022 08:24 3,4 C 3,3 C 1,1 C 96 % 1020,0 hPa 0,0 l/m 0 min 0 min 36 W/m 6,4 km/h (2 Bft) 100,00 %
22.02.2022 08:26 3,4 C 3,3 C 1,1 C 96 % 1020,0 hPa 0,0 l/m 0 min 0 min 36 W/m 9,7 km/h (2 Bft) 100,00 %
22.02.2022 08:28 3,5 C 3,3 C 1,1 C 96 % 1020,1 hPa 0,0 l/m 0 min 0 min 50 W/m 6,4 km/h (2 Bft) 97,87 %
22.02.2022 08:30 3,5 C 3,3 C 1,1 C 96 % 1020,0 hPa 0,0 l/m 0 min 0 min 53 W/m 6,4 km/h (2 Bft) 97,87 %
22.02.2022 08:32 3,5 C 3,3 C 1,1 C 96 % 1020,1 hPa 0,0 l/m 0 min 0 min 54 W/m 6,4 km/h (2 Bft) 97,87 %
22.02.2022 08:34 3,6 C 3,3 C 1,1 C 96 % 1020,1 hPa 0,0 l/m 0 min 0 min 56 W/m 9,7 km/h (2 Bft) 100,00 %
22.02.2022 08:36 3,6 C 3,3 C 1,1 C 96 % 1020,1 hPa 0,0 l/m 0 min 0 min 55 W/m 6,4 km/h (2 Bft) 100,00 %
22.02.2022 08:38 3,6 C 3,3 C 1,1 C 96 % 1020,1 hPa 0,0 l/m 0 min 0 min 63 W/m 12,9 km/h (3 Bft) 100,00 %
22.02.2022 08:40 3,7 C 3,9 C 1,7 C 96 % 1020,1 hPa 0,0 l/m 0 min 0 min 65 W/m 25,7 km/h (4 Bft) 95,74 %
22.02.2022 08:42 3,7 C 3,9 C 1,7 C 96 % 1020,1 hPa 0,0 l/m 0 min 0 min 69 W/m 16,1 km/h (3 Bft) 97,87 %
22.02.2022 08:44 3,8 C 3,9 C 1,7 C 96 % 1020,1 hPa 0,0 l/m 0 min 0 min 78 W/m 16,1 km/h (3 Bft) 97,87 %
22.02.2022 08:46 3,8 C 3,9 C 1,7 C 96 % 1020,0 hPa 0,0 l/m 0 min 0 min 83 W/m 12,9 km/h (3 Bft) 97,87 %
22.02.2022 08:48 3,8 C 3,9 C 1,7 C 96 % 1020,0 hPa 0,0 l/m 2 min 0 min 88 W/m 12,9 km/h (3 Bft) 97,83 %
22.02.2022 08:50 3,9 C 3,9 C 1,7 C 96 % 1020,0 hPa 0,0 l/m 2 min 0 min 89 W/m 19,3 km/h (3 Bft) 95,74 %
22.02.2022 08:52 3,9 C 3,9 C 1,7 C 96 % 1020,0 hPa 0,0 l/m 0 min 0 min 81 W/m 9,7 km/h (2 Bft) 95,74 %
22.02.2022 08:54 3,9 C 3,9 C 1,7 C 96 % 1020,1 hPa 0,0 l/m 0 min 0 min 76 W/m 16,1 km/h (3 Bft) 97,87 %
22.02.2022 08:56 4,0 C 3,9 C 1,7 C 96 % 1020,0 hPa 0,0 l/m 0 min 0 min 78 W/m 12,9 km/h (3 Bft) 97,87 %
22.02.2022 08:58 4,1 C 4,4 C 1,7 C 96 % 1020,0 hPa 0,0 l/m 0 min 0 min 89 W/m 16,1 km/h (3 Bft) 95,74 %
22.02.2022 09:00 4,1 C 4,4 C 1,7 C 96 % 1020,1 hPa 0,0 l/m 2 min 0 min 110 W/m 16,1 km/h (3 Bft) 95,65 %
22.02.2022 09:02 4,1 C 4,4 C 2,2 C 96 % 1020,1 hPa 0,0 l/m 0 min 0 min 91 W/m 16,1 km/h (3 Bft) 97,87 %
22.02.2022 09:04 4,2 C 4,4 C 2,2 C 96 % 1020,0 hPa 0,0 l/m 0 min 0 min 76 W/m 16,1 km/h (3 Bft) 98,00 %
22.02.2022 09:06 4,2 C 4,4 C 2,2 C 96 % 1020,0 hPa 0,0 l/m 0 min 0 min 93 W/m 16,1 km/h (3 Bft) 97,87 %
22.02.2022 09:08 4,3 C 4,4 C 2,2 C 96 % 1019,9 hPa 0,0 l/m 2 min 0 min 121 W/m 12,9 km/h (3 Bft) 97,87 %
22.02.2022 09:10 4,3 C 5,0 C 2,2 C 96 % 1019,9 hPa 0,0 l/m 2 min 0 min 125 W/m 22,5 km/h (4 Bft) 93,48 %
22.02.2022 09:12 4,4 C 5,0 C 2,2 C 96 % 1020,0 hPa 0,0 l/m 0 min 0 min 105 W/m 16,1 km/h (3 Bft) 95,74 %
22.02.2022 09:14 4,4 C 5,0 C 2,2 C 96 % 1019,9 hPa 0,0 l/m 0 min 0 min 97 W/m 9,7 km/h (2 Bft) 100,00 %
22.02.2022 09:16 4,5 C 5,0 C 2,2 C 96 % 1019,9 hPa 0,0 l/m 0 min 0 min 95 W/m 12,9 km/h (3 Bft) 97,87 %
22.02.2022 09:18 4,5 C 5,0 C 2,2 C 96 % 1019,9 hPa 0,0 l/m 0 min 0 min 94 W/m 16,1 km/h (3 Bft) 100,00 %
22.02.2022 09:20 4,6 C 5,0 C 2,2 C 96 % 1019,9 hPa 0,0 l/m 0 min 0 min 105 W/m 19,3 km/h (3 Bft) 100,00 %
22.02.2022 09:22 4,6 C 5,0 C 2,8 C 96 % 1019,8 hPa 0,0 l/m 0 min 0 min 112 W/m 16,1 km/h (3 Bft) 100,00 %
22.02.2022 09:24 4,7 C 5,0 C 2,8 C 95 % 1019,8 hPa 0,0 l/m 2 min 0 min 137 W/m 16,1 km/h (3 Bft) 100,00 %
22.02.2022 09:26 4,7 C 5,0 C 2,8 C 95 % 1019,7 hPa 0,0 l/m 2 min 0 min 142 W/m 16,1 km/h (3 Bft) 100,00 %
22.02.2022 09:28 4,8 C 5,6 C 2,8 C 95 % 1019,8 hPa 0,0 l/m 2 min 0 min 152 W/m 22,5 km/h (4 Bft) 100,00 %
22.02.2022 09:30 4,8 C 5,6 C 2,8 C 95 % 1019,7 hPa 0,0 l/m 2 min 0 min 167 W/m 25,7 km/h (4 Bft) 100,00 %
22.02.2022 09:32 4,9 C 5,6 C 2,8 C 95 % 1019,7 hPa 0,0 l/m 2 min 0 min 170 W/m 22,5 km/h (4 Bft) 100,00 %
22.02.2022 09:34 4,9 C 5,6 C 2,8 C 95 % 1019,6 hPa 0,0 l/m 2 min 0 min 150 W/m 29,0 km/h (5 Bft) 100,00 %
22.02.2022 09:36 5,1 C 5,6 C 2,8 C 95 % 1019,6 hPa 0,0 l/m 0 min 0 min 129 W/m 25,7 km/h (4 Bft) 100,00 %
22.02.2022 09:38 5,1 C 5,6 C 2,8 C 95 % 1019,6 hPa 0,0 l/m 0 min 0 min 120 W/m 16,1 km/h (3 Bft) 97,87 %
22.02.2022 09:40 5,1 C 5,0 C 2,8 C 95 % 1019,6 hPa 0,0 l/m 0 min 0 min 117 W/m 19,3 km/h (3 Bft) 100,00 %
22.02.2022 09:42 5,2 C 5,0 C 2,8 C 94 % 1019,6 hPa 0,0 l/m 0 min 0 min 117 W/m 22,5 km/h (4 Bft) 100,00 %
22.02.2022 09:44 5,2 C 5,0 C 2,8 C 94 % 1019,6 hPa 0,0 l/m 0 min 0 min 111 W/m 16,1 km/h (3 Bft) 100,00 %
22.02.2022 09:46 5,2 C 5,0 C 2,8 C 94 % 1019,5 hPa 0,0 l/m 0 min 0 min 107 W/m 22,5 km/h (4 Bft) 100,00 %
22.02.2022 09:48 5,2 C 5,0 C 2,8 C 94 % 1019,6 hPa 0,0 l/m 0 min 0 min 110 W/m 22,5 km/h (4 Bft) 95,74 %
22.02.2022 09:50 5,3 C 5,0 C 2,8 C 94 % 1019,6 hPa 0,0 l/m 0 min 0 min 104 W/m 22,5 km/h (4 Bft) 100,00 %
22.02.2022 09:52 5,3 C 5,0 C 2,8 C 94 % 1019,6 hPa 0,0 l/m 0 min 0 min 104 W/m 16,1 km/h (3 Bft) 100,00 %
22.02.2022 09:54 5,3 C 5,0 C 2,8 C 94 % 1019,6 hPa 0,0 l/m 0 min 0 min 109 W/m 22,5 km/h (4 Bft) 100,00 %
22.02.2022 09:56 5,3 C 5,6 C 2,8 C 94 % 1019,5 hPa 0,0 l/m 0 min 0 min 115 W/m 22,5 km/h (4 Bft) 100,00 %
22.02.2022 09:58 5,4 C 5,6 C 3,3 C 93 % 1019,5 hPa 0,0 l/m 0 min 0 min 126 W/m 16,1 km/h (3 Bft) 97,96 %
22.02.2022 10:00 5,4 C 5,6 C 3,3 C 93 % 1019,6 hPa 0,0 l/m 0 min 0 min 128 W/m 19,3 km/h (3 Bft) 97,87 %
22.02.2022 10:02 5,5 C 5,6 C 3,3 C 93 % 1019,6 hPa 0,0 l/m 0 min 0 min 126 W/m 16,1 km/h (3 Bft) 97,87 %
22.02.2022 10:04 5,5 C 5,6 C 3,3 C 93 % 1019,6 hPa 0,0 l/m 0 min 0 min 123 W/m 16,1 km/h (3 Bft) 100,00 %
22.02.2022 10:06 5,6 C 5,6 C 3,3 C 93 % 1019,5 hPa 0,0 l/m 0 min 0 min 124 W/m 16,1 km/h (3 Bft) 97,87 %
22.02.2022 10:08 5,6 C 5,6 C 3,3 C 93 % 1019,5 hPa 0,0 l/m 0 min 0 min 128 W/m 16,1 km/h (3 Bft) 97,83 %
22.02.2022 10:10 5,6 C 5,6 C 3,3 C 93 % 1019,5 hPa 0,0 l/m 0 min 0 min 130 W/m 16,1 km/h (3 Bft) 97,87 %
22.02.2022 10:12 5,7 C 5,6 C 3,3 C 93 % 1019,5 hPa 0,0 l/m 0 min 0 min 134 W/m 19,3 km/h (3 Bft) 97,87 %
22.02.2022 10:14 5,7 C 6,1 C 3,3 C 93 % 1019,5 hPa 0,0 l/m 0 min 0 min 135 W/m 25,7 km/h (4 Bft) 97,87 %
22.02.2022 10:16 5,8 C 6,1 C 3,3 C 93 % 1019,5 hPa 0,0 l/m 0 min 0 min 141 W/m 12,9 km/h (3 Bft) 97,87 %
22.02.2022 10:18 5,8 C 6,1 C 3,3 C 93 % 1019,5 hPa 0,0 l/m 0 min 0 min 148 W/m 16,1 km/h (3 Bft) 95,74 %
22.02.2022 10:20 5,8 C 6,1 C 3,9 C 93 % 1019,4 hPa 0,0 l/m 0 min 0 min 153 W/m 22,5 km/h (4 Bft) 95,65 %
22.02.2022 10:22 5,9 C 6,1 C 3,9 C 93 % 1019,4 hPa 0,0 l/m 0 min 0 min 163 W/m 16,1 km/h (3 Bft) 95,74 %
22.02.2022 10:24 5,9 C 6,1 C 3,9 C 93 % 1019,3 hPa 0,0 l/m 0 min 0 min 168 W/m 9,7 km/h (2 Bft) 93,62 %
22.02.2022 10:26 6,0 C 6,7 C 3,9 C 93 % 1019,2 hPa 0,0 l/m 2 min 0 min 184 W/m 9,7 km/h (2 Bft) 95,83 %
22.02.2022 10:28 6,1 C 6,7 C 3,9 C 93 % 1019,2 hPa 0,0 l/m 2 min 0 min 194 W/m 12,9 km/h (3 Bft) 94,29 %
22.02.2022 10:30 6,1 C 6,7 C 3,9 C 93 % 1019,2 hPa 0,0 l/m 0 min 0 min 181 W/m 19,3 km/h (3 Bft) 95,74 %
22.02.2022 10:32 6,2 C 6,7 C 3,9 C 93 % 1019,2 hPa 0,0 l/m 0 min 0 min 152 W/m 22,5 km/h (4 Bft) 95,74 %
22.02.2022 10:34 6,2 C 6,7 C 4,4 C 93 % 1019,1 hPa 0,0 l/m 0 min 0 min 159 W/m 12,9 km/h (3 Bft) 95,74 %
22.02.2022 10:36 6,3 C 6,7 C 4,4 C 92 % 1019,2 hPa 0,0 l/m 0 min 0 min 175 W/m 12,9 km/h (3 Bft) 94,44 %
22.02.2022 10:38 6,3 C 6,7 C 4,4 C 93 % 1019,0 hPa 0,0 l/m 0 min 0 min 185 W/m 22,5 km/h (4 Bft) 95,74 %
22.02.2022 10:40 6,4 C 7,2 C 4,4 C 92 % 1019,1 hPa 0,0 l/m 2 min 0 min 202 W/m 12,9 km/h (3 Bft) 93,62 %
22.02.2022 10:42 6,5 C 7,2 C 4,4 C 92 % 1019,0 hPa 0,0 l/m 2 min 0 min 243 W/m 19,3 km/h (3 Bft) 91,49 %
22.02.2022 10:44 6,5 C 7,2 C 4,4 C 92 % 1019,0 hPa 0,0 l/m 2 min 0 min 261 W/m 16,1 km/h (3 Bft) 93,48 %
22.02.2022 10:46 6,6 C 7,2 C 5,0 C 92 % 1019,1 hPa 0,0 l/m 2 min 0 min 236 W/m 22,5 km/h (4 Bft) 95,74 %
22.02.2022 10:48 6,7 C 7,2 C 5,0 C 91 % 1019,0 hPa 0,0 l/m 2 min 0 min 206 W/m 22,5 km/h (4 Bft) 93,62 %
22.02.2022 10:50 6,7 C 7,2 C 5,0 C 91 % 1019,0 hPa 0,0 l/m 2 min 0 min 216 W/m 22,5 km/h (4 Bft) 91,49 %
22.02.2022 10:52 6,8 C 7,2 C 5,0 C 91 % 1019,1 hPa 0,0 l/m 2 min 0 min 230 W/m 29,0 km/h (5 Bft) 93,62 %
22.02.2022 10:54 6,8 C 7,2 C 5,0 C 90 % 1019,0 hPa 0,0 l/m 2 min 0 min 222 W/m 25,7 km/h (4 Bft) 91,49 %
22.02.2022 10:56 6,9 C 7,2 C 5,0 C 90 % 1019,0 hPa 0,0 l/m 0 min 0 min 191 W/m 29,0 km/h (5 Bft) 93,48 %
22.02.2022 10:58 6,9 C 7,2 C 5,0 C 90 % 1018,9 hPa 0,0 l/m 0 min 0 min 175 W/m 22,5 km/h (4 Bft) 94,00 %
22.02.2022 11:00 7,1 C 7,2 C 5,0 C 89 % 1018,9 hPa 0,0 l/m 0 min 0 min 178 W/m 19,3 km/h (3 Bft) 95,74 %
22.02.2022 11:02 7,1 C 7,2 C 5,0 C 89 % 1018,8 hPa 0,0 l/m 0 min 0 min 204 W/m 22,5 km/h (4 Bft) 95,74 %
22.02.2022 11:04 7,1 C 7,2 C 5,0 C 89 % 1018,8 hPa 0,0 l/m 2 min 0 min 234 W/m 22,5 km/h (4 Bft) 95,74 %
22.02.2022 11:06 7,2 C 7,8 C 5,0 C 89 % 1018,8 hPa 0,0 l/m 2 min 0 min 236 W/m 35,4 km/h (5 Bft) 95,65 %
22.02.2022 11:08 7,2 C 7,8 C 5,0 C 88 % 1018,8 hPa 0,0 l/m 2 min 0 min 222 W/m 22,5 km/h (4 Bft) 97,87 %
22.02.2022 11:10 7,3 C 7,8 C 5,0 C 88 % 1018,8 hPa 0,0 l/m 0 min 0 min 200 W/m 22,5 km/h (4 Bft) 97,87 %
22.02.2022 11:12 7,3 C 7,8 C 5,0 C 88 % 1018,8 hPa 0,0 l/m 0 min 0 min 186 W/m 16,1 km/h (3 Bft) 93,62 %
22.02.2022 11:14 7,4 C 7,8 C 5,0 C 88 % 1018,8 hPa 0,0 l/m 0 min 0 min 177 W/m 16,1 km/h (3 Bft) 97,87 %
22.02.2022 11:16 7,4 C 7,8 C 5,0 C 88 % 1018,7 hPa 0,0 l/m 0 min 0 min 169 W/m 19,3 km/h (3 Bft) 97,87 %
22.02.2022 11:18 7,4 C 7,2 C 5,0 C 87 % 1018,7 hPa 0,0 l/m 0 min 0 min 172 W/m 29,0 km/h (5 Bft) 97,83 %
22.02.2022 11:20 7,4 C 7,2 C 5,0 C 87 % 1018,7 hPa 0,0 l/m 0 min 0 min 175 W/m 16,1 km/h (3 Bft) 97,87 %
22.02.2022 11:22 7,5 C 7,8 C 5,0 C 87 % 1018,7 hPa 0,0 l/m 0 min 0 min 171 W/m 22,5 km/h (4 Bft) 100,00 %
22.02.2022 11:24 7,5 C 7,8 C 5,0 C 87 % 1018,7 hPa 0,0 l/m 0 min 0 min 173 W/m 22,5 km/h (4 Bft) 100,00 %
22.02.2022 11:26 7,6 C 7,8 C 5,0 C 87 % 1018,7 hPa 0,0 l/m 0 min 0 min 169 W/m 19,3 km/h (3 Bft) 100,00 %
22.02.2022 11:28 7,6 C 7,8 C 5,0 C 87 % 1018,7 hPa 0,0 l/m 0 min 0 min 146 W/m 22,5 km/h (4 Bft) 100,00 %
22.02.2022 11:30 7,6 C 7,2 C 5,0 C 87 % 1018,8 hPa 0,0 l/m 0 min 0 min 118 W/m 19,3 km/h (3 Bft) 100,00 %
22.02.2022 11:32 7,6 C 7,2 C 5,0 C 86 % 1018,8 hPa 0,0 l/m 0 min 0 min 106 W/m 29,0 km/h (5 Bft) 100,00 %
22.02.2022 11:34 7,6 C 7,2 C 5,0 C 86 % 1018,8 hPa 0,0 l/m 0 min 0 min 106 W/m 19,3 km/h (3 Bft) 97,87 %
22.02.2022 11:36 7,7 C 7,2 C 5,0 C 86 % 1018,9 hPa 0,0 l/m 0 min 0 min 116 W/m 22,5 km/h (4 Bft) 97,92 %
22.02.2022 11:38 7,7 C 7,2 C 5,0 C 86 % 1019,0 hPa 0,0 l/m 0 min 0 min 121 W/m 22,5 km/h (4 Bft) 100,00 %
22.02.2022 11:40 7,7 C 7,2 C 5,0 C 86 % 1019,0 hPa 0,0 l/m 0 min 0 min 119 W/m 22,5 km/h (4 Bft) 100,00 %
22.02.2022 11:42 7,7 C 7,8 C 5,0 C 86 % 1019,1 hPa 0,0 l/m 0 min 0 min 115 W/m 16,1 km/h (3 Bft) 100,00 %
22.02.2022 11:44 7,7 C 7,8 C 5,0 C 86 % 1019,0 hPa 0,0 l/m 0 min 0 min 112 W/m 22,5 km/h (4 Bft) 100,00 %
22.02.2022 11:46 7,8 C 7,8 C 5,0 C 86 % 1018,9 hPa 0,0 l/m 0 min 0 min 113 W/m 29,0 km/h (5 Bft) 100,00 %
22.02.2022 11:48 7,8 C 7,8 C 5,0 C 85 % 1019,0 hPa 0,0 l/m 0 min 0 min 113 W/m 25,7 km/h (4 Bft) 100,00 %
22.02.2022 11:50 7,8 C 7,8 C 5,0 C 85 % 1019,0 hPa 0,0 l/m 0 min 0 min 113 W/m 19,3 km/h (3 Bft) 100,00 %
22.02.2022 11:52 7,8 C 7,8 C 5,0 C 85 % 1019,0 hPa 0,0 l/m 0 min 0 min 106 W/m 19,3 km/h (3 Bft) 100,00 %
22.02.2022 11:54 7,8 C 7,8 C 5,0 C 85 % 1018,9 hPa 0,0 l/m 0 min 0 min 93 W/m 29,0 km/h (5 Bft) 100,00 %
22.02.2022 11:56 7,8 C 7,2 C 4,4 C 85 % 1018,8 hPa 0,0 l/m 0 min 0 min 82 W/m 19,3 km/h (3 Bft) 100,00 %
22.02.2022 11:58 7,8 C 7,2 C 4,4 C 85 % 1018,8 hPa 0,0 l/m 0 min 0 min 83 W/m 35,4 km/h (5 Bft) 100,00 %
22.02.2022 12:00 7,8 C 7,2 C 4,4 C 85 % 1018,8 hPa 0,0 l/m 0 min 0 min 86 W/m 29,0 km/h (5 Bft) 100,00 %
22.02.2022 12:02 7,8 C 7,2 C 4,4 C 85 % 1018,7 hPa 0,0 l/m 0 min 0 min 94 W/m 29,0 km/h (5 Bft) 100,00 %
22.02.2022 12:04 7,8 C 7,2 C 5,0 C 85 % 1018,6 hPa 0,0 l/m 0 min 0 min 98 W/m 29,0 km/h (5 Bft) 97,87 %
22.02.2022 12:08 7,8 C 7,2 C 5,0 C 85 % 1018,6 hPa 0,0 l/m 0 min 0 min 98 W/m 32,2 km/h (5 Bft) 100,00 %
22.02.2022 12:10 7,8 C 7,2 C 4,4 C 85 % 1018,4 hPa 0,0 l/m 0 min 2 min 105 W/m 25,7 km/h (4 Bft) 97,87 %
22.02.2022 12:12 7,8 C 7,8 C 4,4 C 85 % 1018,4 hPa 0,0 l/m 0 min 0 min 129 W/m 19,3 km/h (3 Bft) 100,00 %
22.02.2022 12:14 7,8 C 7,8 C 4,4 C 85 % 1018,3 hPa 0,0 l/m 0 min 0 min 150 W/m 19,3 km/h (3 Bft) 100,00 %
22.02.2022 12:16 7,9 C 7,8 C 4,4 C 85 % 1018,2 hPa 0,0 l/m 0 min 0 min 149 W/m 25,7 km/h (4 Bft) 100,00 %
22.02.2022 12:18 7,9 C 7,8 C 4,4 C 85 % 1018,3 hPa 0,0 l/m 0 min 0 min 145 W/m 22,5 km/h (4 Bft) 100,00 %
22.02.2022 12:20 7,9 C 7,8 C 5,0 C 85 % 1018,3 hPa 0,0 l/m 0 min 0 min 132 W/m 22,5 km/h (4 Bft) 100,00 %
22.02.2022 12:22 8,0 C 7,8 C 5,0 C 85 % 1018,3 hPa 0,0 l/m 0 min 0 min 113 W/m 29,0 km/h (5 Bft) 97,87 %
22.02.2022 12:24 8,0 C 7,8 C 5,0 C 85 % 1018,4 hPa 0,0 l/m 0 min 0 min 111 W/m 19,3 km/h (3 Bft) 95,74 %
22.02.2022 12:26 8,1 C 7,8 C 5,0 C 85 % 1018,3 hPa 0,0 l/m 0 min 0 min 118 W/m 16,1 km/h (3 Bft) 100,00 %
22.02.2022 12:28 8,1 C 7,8 C 5,0 C 85 % 1018,3 hPa 0,0 l/m 0 min 0 min 130 W/m 32,2 km/h (5 Bft) 100,00 %
22.02.2022 12:30 8,1 C 7,8 C 5,0 C 84 % 1018,2 hPa 0,0 l/m 0 min 0 min 144 W/m 41,8 km/h (6 Bft) 100,00 %
22.02.2022 12:32 8,1 C 7,8 C 5,0 C 84 % 1018,0 hPa 0,0 l/m 0 min 0 min 150 W/m 29,0 km/h (5 Bft) 100,00 %
22.02.2022 12:34 8,2 C 7,8 C 5,0 C 83 % 1018,0 hPa 0,0 l/m 0 min 0 min 150 W/m 25,7 km/h (4 Bft) 97,87 %
22.02.2022 12:36 8,2 C 8,3 C 5,0 C 83 % 1017,9 hPa 0,0 l/m 0 min 0 min 139 W/m 19,3 km/h (3 Bft) 100,00 %
22.02.2022 12:38 8,2 C 7,8 C 5,0 C 83 % 1017,9 hPa 0,0 l/m 0 min 0 min 136 W/m 25,7 km/h (4 Bft) 100,00 %
22.02.2022 12:40 8,3 C 8,3 C 5,6 C 83 % 1017,7 hPa 0,0 l/m 0 min 0 min 159 W/m 25,7 km/h (4 Bft) 100,00 %
22.02.2022 12:42 8,3 C 8,3 C 5,6 C 83 % 1017,6 hPa 0,0 l/m 0 min 0 min 193 W/m 32,2 km/h (5 Bft) 97,87 %
22.02.2022 12:44 8,3 C 8,3 C 5,6 C 82 % 1017,6 hPa 0,0 l/m 0 min 0 min 193 W/m 35,4 km/h (5 Bft) 100,00 %
22.02.2022 12:46 8,4 C 8,3 C 5,6 C 82 % 1017,6 hPa 0,0 l/m 0 min 0 min 199 W/m 41,8 km/h (6 Bft) 98,00 %
22.02.2022 12:48 8,4 C 8,3 C 5,6 C 83 % 1017,5 hPa 0,0 l/m 0 min 0 min 192 W/m 32,2 km/h (5 Bft) 100,00 %
22.02.2022 12:50 8,4 C 8,3 C 5,6 C 83 % 1017,6 hPa 0,0 l/m 0 min 0 min 156 W/m 29,0 km/h (5 Bft) 100,00 %
22.02.2022 12:52 8,4 C 8,3 C 5,6 C 83 % 1017,7 hPa 0,0 l/m 0 min 0 min 108 W/m 29,0 km/h (5 Bft) 95,83 %
22.02.2022 12:54 8,4 C 8,3 C 5,0 C 83 % 1017,6 hPa 0,0 l/m 0 min 0 min 96 W/m 19,3 km/h (3 Bft) 97,87 %
22.02.2022 12:56 8,4 C 7,8 C 5,0 C 83 % 1017,5 hPa 0,0 l/m 0 min 0 min 101 W/m 29,0 km/h (5 Bft) 95,74 %
22.02.2022 12:58 8,4 C 7,8 C 5,0 C 83 % 1017,6 hPa 0,0 l/m 0 min 0 min 112 W/m 48,3 km/h (6 Bft) 93,62 %
22.02.2022 13:00 8,4 C 7,8 C 5,0 C 83 % 1017,6 hPa 0,0 l/m 0 min 0 min 126 W/m 22,5 km/h (4 Bft) 95,74 %
22.02.2022 13:02 8,4 C 7,8 C 5,0 C 84 % 1017,6 hPa 0,0 l/m 0 min 0 min 127 W/m 25,7 km/h (4 Bft) 93,48 %
22.02.2022 13:04 8,4 C 8,3 C 5,0 C 84 % 1017,7 hPa 0,0 l/m 0 min 0 min 110 W/m 16,1 km/h (3 Bft) 94,44 %
22.02.2022 13:06 8,4 C 8,3 C 5,0 C 84 % 1017,7 hPa 0,0 l/m 0 min 0 min 104 W/m 16,1 km/h (3 Bft) 93,48 %
22.02.2022 13:08 8,4 C 7,8 C 5,0 C 84 % 1017,6 hPa 0,0 l/m 0 min 0 min 88 W/m 25,7 km/h (4 Bft) 96,36 %
22.02.2022 13:10 8,3 C 7,8 C 5,0 C 84 % 1017,7 hPa 0,0 l/m 0 min 0 min 87 W/m 22,5 km/h (4 Bft) 95,74 %
22.02.2022 13:12 8,3 C 7,8 C 5,0 C 84 % 1017,6 hPa 0,0 l/m 0 min 0 min 75 W/m 35,4 km/h (5 Bft) 93,62 %
22.02.2022 13:14 8,3 C 7,8 C 5,0 C 85 % 1017,5 hPa 0,0 l/m 0 min 0 min 73 W/m 29,0 km/h (5 Bft) 91,30 %
22.02.2022 13:16 8,2 C 7,8 C 5,0 C 85 % 1017,6 hPa 0,0 l/m 0 min 0 min 97 W/m 22,5 km/h (4 Bft) 93,62 %
22.02.2022 13:18 8,2 C 7,8 C 5,0 C 86 % 1017,6 hPa 0,0 l/m 0 min 0 min 95 W/m 22,5 km/h (4 Bft) 89,36 %
22.02.2022 13:20 8,2 C 7,8 C 5,0 C 86 % 1017,6 hPa 0,0 l/m 0 min 2 min 98 W/m 22,5 km/h (4 Bft) 90,00 %
22.02.2022 13:22 8,2 C 7,8 C 4,4 C 87 % 1017,5 hPa 0,0 l/m 0 min 2 min 95 W/m 29,0 km/h (5 Bft) 91,49 %
22.02.2022 13:24 8,1 C 7,2 C 4,4 C 87 % 1017,5 hPa 0,0 l/m 0 min 2 min 94 W/m 19,3 km/h (3 Bft) 93,62 %
22.02.2022 13:26 8,1 C 7,2 C 4,4 C 88 % 1017,5 hPa 0,0 l/m 0 min 2 min 82 W/m 19,3 km/h (3 Bft) 91,30 %
22.02.2022 13:28 8,0 C 7,2 C 3,9 C 88 % 1017,5 hPa 0,0 l/m 0 min 2 min 57 W/m 22,5 km/h (4 Bft) 93,62 %
22.02.2022 13:30 7,9 C 7,2 C 3,9 C 89 % 1017,5 hPa 0,0 l/m 0 min 2 min 51 W/m 29,0 km/h (5 Bft) 93,62 %
22.02.2022 13:32 7,9 C 7,2 C 3,9 C 89 % 1017,5 hPa 0,0 l/m 0 min 2 min 53 W/m 19,3 km/h (3 Bft) 95,83 %
22.02.2022 13:34 7,8 C 7,2 C 3,9 C 89 % 1017,6 hPa 0,0 l/m 0 min 2 min 59 W/m 22,5 km/h (4 Bft) 93,62 %
22.02.2022 13:36 7,8 C 7,2 C 3,9 C 90 % 1017,7 hPa 0,0 l/m 0 min 2 min 39 W/m 25,7 km/h (4 Bft) 97,14 %
22.02.2022 13:38 7,7 C 6,7 C 3,9 C 91 % 1017,6 hPa 0,0 l/m 0 min 2 min 42 W/m 35,4 km/h (5 Bft) 93,62 %
22.02.2022 13:40 7,7 C 6,7 C 3,9 C 91 % 1017,5 hPa 0,0 l/m 0 min 2 min 58 W/m 22,5 km/h (4 Bft) 95,65 %
22.02.2022 13:42 7,7 C 6,7 C 3,9 C 91 % 1017,5 hPa 0,0 l/m 0 min 2 min 57 W/m 19,3 km/h (3 Bft) 96,36 %
22.02.2022 13:44 7,6 C 6,7 C 3,9 C 92 % 1017,5 hPa 0,0 l/m 0 min 2 min 45 W/m 19,3 km/h (3 Bft) 95,74 %
22.02.2022 13:46 7,6 C 7,2 C 3,9 C 92 % 1017,4 hPa 0,0 l/m 0 min 2 min 76 W/m 38,6 km/h (5 Bft) 96,00 %
22.02.2022 13:48 7,6 C 7,2 C 3,9 C 92 % 1017,2 hPa 0,0 l/m 0 min 2 min 135 W/m 32,2 km/h (5 Bft) 95,65 %
22.02.2022 13:50 7,6 C 7,2 C 3,9 C 92 % 1016,9 hPa 0,0 l/m 0 min 2 min 188 W/m 35,4 km/h (5 Bft) 97,87 %
22.02.2022 13:52 7,6 C 7,2 C 3,9 C 92 % 1017,0 hPa 0,0 l/m 0 min 2 min 157 W/m 29,0 km/h (5 Bft) 97,87 %
22.02.2022 13:54 7,7 C 7,2 C 3,9 C 93 % 1017,0 hPa 0,0 l/m 0 min 2 min 124 W/m 25,7 km/h (4 Bft) 95,74 %
22.02.2022 13:56 7,7 C 7,2 C 4,4 C 93 % 1016,9 hPa 0,0 l/m 0 min 2 min 165 W/m 19,3 km/h (3 Bft) 97,87 %
22.02.2022 13:58 7,7 C 7,2 C 4,4 C 93 % 1016,8 hPa 0,0 l/m 0 min 2 min 136 W/m 29,0 km/h (5 Bft) 100,00 %
22.02.2022 14:00 7,7 C 7,2 C 4,4 C 93 % 1016,7 hPa 0,0 l/m 0 min 2 min 103 W/m 35,4 km/h (5 Bft) 97,83 %
22.02.2022 14:02 7,7 C 7,2 C 4,4 C 93 % 1016,8 hPa 0,0 l/m 0 min 2 min 71 W/m 22,5 km/h (4 Bft) 100,00 %
22.02.2022 14:07 7,7 C 7,2 C 4,4 C 93 % 1016,6 hPa 0,0 l/m 0 min 5 min 97 W/m 25,7 km/h (4 Bft) 100,00 %
22.02.2022 14:08 7,7 C 7,2 C 4,4 C 93 % 1016,6 hPa 0,0 l/m 0 min 1 min 103 W/m 19,3 km/h (3 Bft) 100,00 %
22.02.2022 14:10 7,7 C 7,2 C 4,4 C 93 % 1016,7 hPa 0,0 l/m 0 min 2 min 80 W/m 29,0 km/h (5 Bft) 100,00 %
22.02.2022 14:12 7,7 C 7,2 C 4,4 C 93 % 1016,8 hPa 0,0 l/m 0 min 2 min 55 W/m 29,0 km/h (5 Bft) 100,00 %
22.02.2022 14:14 7,7 C 7,2 C 4,4 C 94 % 1016,8 hPa 0,0 l/m 0 min 2 min 58 W/m 25,7 km/h (4 Bft) 100,00 %
22.02.2022 14:16 7,7 C 7,2 C 4,4 C 94 % 1016,7 hPa 0,0 l/m 0 min 0 min 47 W/m 22,5 km/h (4 Bft) 100,00 %
22.02.2022 14:18 7,7 C 7,2 C 4,4 C 94 % 1016,7 hPa 0,0 l/m 0 min 0 min 52 W/m 29,0 km/h (5 Bft) 97,87 %
22.02.2022 14:20 7,7 C 7,2 C 4,4 C 94 % 1016,6 hPa 0,0 l/m 0 min 0 min 39 W/m 12,9 km/h (3 Bft) 100,00 %
22.02.2022 14:22 7,7 C 7,2 C 4,4 C 94 % 1016,6 hPa 0,0 l/m 0 min 0 min 47 W/m 19,3 km/h (3 Bft) 100,00 %
22.02.2022 14:24 7,8 C 7,2 C 4,4 C 94 % 1016,6 hPa 0,0 l/m 0 min 0 min 86 W/m 22,5 km/h (4 Bft) 100,00 %
22.02.2022 14:26 7,8 C 7,2 C 4,4 C 94 % 1016,5 hPa 0,0 l/m 0 min 0 min 66 W/m 29,0 km/h (5 Bft) 100,00 %
22.02.2022 14:28 7,8 C 7,2 C 4,4 C 94 % 1016,5 hPa 0,0 l/m 0 min 0 min 49 W/m 35,4 km/h (5 Bft) 100,00 %
22.02.2022 14:30 7,8 C 7,2 C 4,4 C 94 % 1016,5 hPa 0,0 l/m 0 min 0 min 48 W/m 22,5 km/h (4 Bft) 100,00 %
22.02.2022 14:32 7,8 C 7,2 C 4,4 C 94 % 1016,3 hPa 0,0 l/m 0 min 0 min 47 W/m 25,7 km/h (4 Bft) 97,87 %
22.02.2022 14:34 7,8 C 7,2 C 4,4 C 94 % 1016,3 hPa 0,0 l/m 0 min 0 min 54 W/m 25,7 km/h (4 Bft) 100,00 %
22.02.2022 14:36 7,9 C 7,2 C 4,4 C 94 % 1016,2 hPa 0,0 l/m 0 min 0 min 53 W/m 25,7 km/h (4 Bft) 100,00 %
22.02.2022 14:38 7,9 C 7,8 C 4,4 C 94 % 1016,2 hPa 0,0 l/m 0 min 0 min 48 W/m 25,7 km/h (4 Bft) 100,00 %
22.02.2022 14:40 7,9 C 7,8 C 5,0 C 94 % 1016,2 hPa 0,0 l/m 0 min 0 min 45 W/m 19,3 km/h (3 Bft) 100,00 %
22.02.2022 14:42 8,0 C 7,8 C 5,0 C 94 % 1016,3 hPa 0,0 l/m 0 min 0 min 51 W/m 32,2 km/h (5 Bft) 97,87 %
22.02.2022 14:44 8,0 C 7,8 C 5,0 C 94 % 1016,2 hPa 0,0 l/m 0 min 0 min 63 W/m 29,0 km/h (5 Bft) 97,87 %
22.02.2022 14:46 8,1 C 7,8 C 5,0 C 94 % 1016,1 hPa 0,0 l/m 0 min 0 min 70 W/m 35,4 km/h (5 Bft) 95,74 %
22.02.2022 14:48 8,1 C 7,8 C 5,0 C 94 % 1016,1 hPa 0,0 l/m 0 min 0 min 61 W/m 22,5 km/h (4 Bft) 100,00 %
22.02.2022 14:50 8,2 C 7,8 C 5,0 C 94 % 1016,2 hPa 0,0 l/m 0 min 0 min 70 W/m 19,3 km/h (3 Bft) 100,00 %
22.02.2022 14:52 8,2 C 7,8 C 5,0 C 94 % 1016,1 hPa 0,0 l/m 0 min 0 min 70 W/m 22,5 km/h (4 Bft) 97,87 %
22.02.2022 14:54 8,3 C 7,8 C 5,0 C 94 % 1016,0 hPa 0,0 l/m 0 min 0 min 83 W/m 29,0 km/h (5 Bft) 97,87 %
22.02.2022 14:56 8,3 C 7,8 C 5,0 C 94 % 1016,1 hPa 0,0 l/m 0 min 0 min 70 W/m 29,0 km/h (5 Bft) 97,87 %
22.02.2022 14:58 8,3 C 7,8 C 5,0 C 94 % 1016,1 hPa 0,0 l/m 0 min 0 min 60 W/m 22,5 km/h (4 Bft) 95,74 %
22.02.2022 15:00 8,4 C 8,3 C 5,6 C 94 % 1016,1 hPa 0,0 l/m 0 min 0 min 68 W/m 16,1 km/h (3 Bft) 100,00 %
22.02.2022 15:02 8,4 C 8,3 C 5,6 C 94 % 1016,0 hPa 0,0 l/m 0 min 0 min 107 W/m 32,2 km/h (5 Bft) 93,48 %
22.02.2022 15:04 8,5 C 8,3 C 5,6 C 94 % 1015,9 hPa 0,0 l/m 0 min 0 min 110 W/m 29,0 km/h (5 Bft) 95,74 %
22.02.2022 15:06 8,6 C 8,3 C 5,6 C 94 % 1015,8 hPa 0,0 l/m 0 min 0 min 81 W/m 29,0 km/h (5 Bft) 97,87 %
22.02.2022 15:08 8,6 C 8,3 C 5,6 C 94 % 1015,8 hPa 0,0 l/m 0 min 0 min 69 W/m 25,7 km/h (4 Bft) 97,87 %
22.02.2022 15:10 8,6 C 8,3 C 5,6 C 94 % 1015,7 hPa 0,0 l/m 0 min 0 min 75 W/m 35,4 km/h (5 Bft) 97,87 %
22.02.2022 15:12 8,6 C 8,3 C 5,6 C 94 % 1015,8 hPa 0,0 l/m 0 min 0 min 75 W/m 22,5 km/h (4 Bft) 97,83 %
22.02.2022 15:14 8,7 C 8,3 C 5,6 C 94 % 1015,9 hPa 0,0 l/m 0 min 0 min 89 W/m 35,4 km/h (5 Bft) 95,74 %
22.02.2022 15:16 8,7 C 8,3 C 5,6 C 93 % 1015,9 hPa 0,0 l/m 0 min 0 min 63 W/m 25,7 km/h (4 Bft) 97,87 %
22.02.2022 15:18 8,7 C 8,3 C 5,6 C 93 % 1016,1 hPa 0,0 l/m 0 min 0 min 36 W/m 22,5 km/h (4 Bft) 97,87 %
22.02.2022 15:20 8,8 C 8,3 C 5,6 C 93 % 1015,9 hPa 0,0 l/m 0 min 0 min 37 W/m 19,3 km/h (3 Bft) 95,74 %
22.02.2022 15:22 8,8 C 8,3 C 5,6 C 93 % 1016,0 hPa 0,0 l/m 0 min 0 min 31 W/m 19,3 km/h (3 Bft) 97,87 %
22.02.2022 15:24 8,8 C 8,3 C 5,6 C 93 % 1016,0 hPa 0,0 l/m 0 min 0 min 34 W/m 25,7 km/h (4 Bft) 97,83 %
22.02.2022 15:26 8,8 C 8,3 C 5,6 C 93 % 1016,0 hPa 0,0 l/m 0 min 0 min 27 W/m 25,7 km/h (4 Bft) 97,87 %
22.02.2022 15:28 8,8 C 8,3 C 5,6 C 93 % 1015,9 hPa 0,0 l/m 0 min 0 min 28 W/m 19,3 km/h (3 Bft) 100,00 %
22.02.2022 15:30 8,8 C 8,3 C 5,6 C 93 % 1015,8 hPa 0,0 l/m 0 min 0 min 35 W/m 19,3 km/h (3 Bft) 100,00 %
22.02.2022 15:32 8,8 C 8,3 C 5,6 C 93 % 1015,7 hPa 0,0 l/m 0 min 0 min 42 W/m 19,3 km/h (3 Bft) 100,00 %
22.02.2022 15:34 8,8 C 8,3 C 5,6 C 93 % 1015,7 hPa 0,0 l/m 0 min 0 min 45 W/m 29,0 km/h (5 Bft) 100,00 %
22.02.2022 15:36 8,8 C 8,3 C 5,6 C 93 % 1015,6 hPa 0,0 l/m 0 min 0 min 56 W/m 45,1 km/h (6 Bft) 100,00 %
22.02.2022 15:38 8,9 C 8,3 C 5,6 C 93 % 1015,7 hPa 0,0 l/m 0 min 0 min 55 W/m 22,5 km/h (4 Bft) 100,00 %
22.02.2022 15:40 8,9 C 8,3 C 5,6 C 93 % 1015,6 hPa 0,0 l/m 0 min 0 min 68 W/m 19,3 km/h (3 Bft) 100,00 %
22.02.2022 15:42 8,9 C 8,3 C 5,6 C 93 % 1015,5 hPa 0,0 l/m 0 min 0 min 55 W/m 25,7 km/h (4 Bft) 95,74 %
22.02.2022 15:44 8,9 C 8,3 C 6,1 C 93 % 1015,5 hPa 0,0 l/m 0 min 0 min 48 W/m 19,3 km/h (3 Bft) 100,00 %
22.02.2022 15:46 9,0 C 8,3 C 6,1 C 93 % 1015,6 hPa 0,0 l/m 0 min 0 min 54 W/m 19,3 km/h (3 Bft) 95,74 %
22.02.2022 15:48 9,0 C 8,3 C 6,1 C 93 % 1015,6 hPa 0,0 l/m 0 min 0 min 61 W/m 16,1 km/h (3 Bft) 95,65 %
22.02.2022 15:50 9,1 C 8,3 C 6,1 C 93 % 1015,6 hPa 0,0 l/m 0 min 0 min 43 W/m 22,5 km/h (4 Bft) 97,87 %
22.02.2022 15:52 9,1 C 8,9 C 6,1 C 92 % 1015,7 hPa 0,0 l/m 0 min 0 min 35 W/m 22,5 km/h (4 Bft) 95,74 %
22.02.2022 15:54 9,1 C 8,9 C 6,1 C 92 % 1015,6 hPa 0,0 l/m 0 min 0 min 53 W/m 29,0 km/h (5 Bft) 97,87 %
22.02.2022 15:56 9,1 C 8,9 C 6,1 C 92 % 1015,5 hPa 0,0 l/m 0 min 0 min 46 W/m 19,3 km/h (3 Bft) 95,74 %
22.02.2022 15:58 9,2 C 8,9 C 6,1 C 92 % 1015,5 hPa 0,0 l/m 0 min 0 min 37 W/m 19,3 km/h (3 Bft) 95,74 %
22.02.2022 16:00 9,2 C 8,9 C 6,1 C 92 % 1015,5 hPa 0,0 l/m 0 min 0 min 42 W/m 29,0 km/h (5 Bft) 97,83 %
22.02.2022 16:02 9,2 C 8,9 C 5,6 C 92 % 1015,3 hPa 0,0 l/m 0 min 2 min 50 W/m 35,4 km/h (5 Bft) 95,74 %
22.02.2022 16:04 9,2 C 8,9 C 5,6 C 92 % 1015,4 hPa 0,0 l/m 0 min 2 min 52 W/m 35,4 km/h (5 Bft) 97,87 %
22.02.2022 16:06 9,2 C 8,9 C 5,6 C 92 % 1015,4 hPa 0,0 l/m 0 min 2 min 55 W/m 35,4 km/h (5 Bft) 93,62 %
22.02.2022 16:08 9,2 C 8,9 C 5,6 C 92 % 1015,3 hPa 0,0 l/m 0 min 2 min 61 W/m 25,7 km/h (4 Bft) 93,62 %
22.02.2022 16:10 9,2 C 8,9 C 5,6 C 92 % 1015,2 hPa 0,0 l/m 0 min 2 min 66 W/m 25,7 km/h (4 Bft) 95,65 %
22.02.2022 16:12 9,3 C 8,9 C 5,6 C 92 % 1015,2 hPa 0,0 l/m 0 min 0 min 68 W/m 29,0 km/h (5 Bft) 95,74 %
22.02.2022 16:14 9,3 C 8,9 C 5,6 C 92 % 1015,2 hPa 0,0 l/m 0 min 2 min 68 W/m 35,4 km/h (5 Bft) 93,62 %
22.02.2022 16:16 9,3 C 8,9 C 6,1 C 92 % 1015,3 hPa 0,0 l/m 0 min 0 min 73 W/m 25,7 km/h (4 Bft) 95,74 %
22.02.2022 16:18 9,3 C 8,9 C 6,1 C 91 % 1015,1 hPa 0,0 l/m 0 min 0 min 78 W/m 22,5 km/h (4 Bft) 95,74 %
22.02.2022 16:20 9,3 C 8,9 C 6,1 C 91 % 1015,1 hPa 0,0 l/m 0 min 0 min 60 W/m 29,0 km/h (5 Bft) 95,74 %
22.02.2022 16:22 9,4 C 8,9 C 6,1 C 91 % 1015,1 hPa 0,0 l/m 0 min 0 min 45 W/m 29,0 km/h (5 Bft) 95,65 %
22.02.2022 16:24 9,4 C 8,9 C 6,1 C 91 % 1015,1 hPa 0,0 l/m 0 min 0 min 54 W/m 29,0 km/h (5 Bft) 95,74 %
22.02.2022 16:26 9,4 C 8,9 C 6,1 C 91 % 1015,0 hPa 0,0 l/m 0 min 0 min 73 W/m 22,5 km/h (4 Bft) 95,74 %
22.02.2022 16:28 9,4 C 8,9 C 6,1 C 91 % 1015,0 hPa 0,0 l/m 0 min 0 min 63 W/m 25,7 km/h (4 Bft) 95,74 %
22.02.2022 16:30 9,4 C 8,9 C 6,1 C 91 % 1014,8 hPa 0,0 l/m 0 min 0 min 49 W/m 25,7 km/h (4 Bft) 93,62 %
22.02.2022 16:32 9,5 C 8,9 C 6,1 C 91 % 1014,9 hPa 0,0 l/m 0 min 0 min 66 W/m 22,5 km/h (4 Bft) 97,87 %
22.02.2022 16:34 9,5 C 8,9 C 6,7 C 91 % 1014,8 hPa 0,0 l/m 0 min 0 min 72 W/m 38,6 km/h (5 Bft) 95,65 %
22.02.2022 16:36 9,6 C 9,4 C 6,7 C 91 % 1014,7 hPa 0,0 l/m 0 min 0 min 74 W/m 35,4 km/h (5 Bft) 97,87 %
22.02.2022 16:38 9,6 C 9,4 C 6,7 C 90 % 1014,6 hPa 0,0 l/m 0 min 0 min 64 W/m 32,2 km/h (5 Bft) 97,87 %
22.02.2022 16:40 9,6 C 8,9 C 6,7 C 90 % 1014,6 hPa 0,0 l/m 0 min 0 min 47 W/m 35,4 km/h (5 Bft) 95,74 %
22.02.2022 16:42 9,6 C 9,4 C 6,7 C 90 % 1014,5 hPa 0,0 l/m 0 min 0 min 56 W/m 32,2 km/h (5 Bft) 98,11 %
22.02.2022 16:44 9,6 C 9,4 C 6,7 C 90 % 1014,4 hPa 0,0 l/m 0 min 0 min 56 W/m 35,4 km/h (5 Bft) 97,87 %
22.02.2022 16:46 9,6 C 8,9 C 6,7 C 90 % 1014,4 hPa 0,0 l/m 0 min 0 min 40 W/m 38,6 km/h (5 Bft) 97,50 %
22.02.2022 16:48 9,6 C 8,9 C 6,7 C 90 % 1014,5 hPa 0,0 l/m 0 min 0 min 38 W/m 25,7 km/h (4 Bft) 95,74 %
22.02.2022 16:50 9,7 C 8,9 C 6,7 C 90 % 1014,5 hPa 0,0 l/m 0 min 0 min 40 W/m 45,1 km/h (6 Bft) 97,87 %
22.02.2022 16:52 9,7 C 8,9 C 6,7 C 90 % 1014,5 hPa 0,0 l/m 0 min 0 min 38 W/m 29,0 km/h (5 Bft) 100,00 %
22.02.2022 16:54 9,7 C 8,9 C 6,7 C 90 % 1014,6 hPa 0,0 l/m 0 min 0 min 32 W/m 48,3 km/h (6 Bft) 100,00 %
22.02.2022 16:56 9,7 C 8,9 C 6,7 C 90 % 1014,6 hPa 0,0 l/m 0 min 0 min 25 W/m 35,4 km/h (5 Bft) 97,87 %
22.02.2022 16:58 9,7 C 8,9 C 6,1 C 90 % 1014,6 hPa 0,0 l/m 0 min 0 min 25 W/m 29,0 km/h (5 Bft) 97,83 %
22.02.2022 17:00 9,6 C 8,9 C 6,1 C 90 % 1014,6 hPa 0,0 l/m 0 min 0 min 26 W/m 45,1 km/h (6 Bft) 97,87 %
22.02.2022 17:02 9,7 C 8,9 C 6,7 C 90 % 1014,5 hPa 0,0 l/m 0 min 0 min 26 W/m 25,7 km/h (4 Bft) 95,74 %
22.02.2022 17:04 9,7 C 8,9 C 6,7 C 90 % 1014,5 hPa 0,0 l/m 0 min 0 min 26 W/m 32,2 km/h (5 Bft) 97,87 %
22.02.2022 17:06 9,7 C 8,9 C 6,7 C 90 % 1014,6 hPa 0,0 l/m 0 min 0 min 25 W/m 29,0 km/h (5 Bft) 98,11 %
22.02.2022 17:08 9,7 C 8,9 C 6,1 C 90 % 1014,6 hPa 0,0 l/m 0 min 0 min 25 W/m 29,0 km/h (5 Bft) 97,83 %
22.02.2022 17:10 9,7 C 8,9 C 6,1 C 90 % 1014,5 hPa 0,0 l/m 0 min 0 min 24 W/m 25,7 km/h (4 Bft) 97,87 %
22.02.2022 17:12 9,7 C 8,9 C 6,1 C 90 % 1014,6 hPa 0,0 l/m 0 min 0 min 22 W/m 19,3 km/h (3 Bft) 95,74 %
22.02.2022 17:14 9,7 C 8,9 C 6,7 C 90 % 1014,6 hPa 0,0 l/m 0 min 0 min 24 W/m 25,7 km/h (4 Bft) 97,87 %
22.02.2022 17:16 9,7 C 8,9 C 6,7 C 90 % 1014,5 hPa 0,0 l/m 0 min 0 min 23 W/m 25,7 km/h (4 Bft) 100,00 %
22.02.2022 17:18 9,7 C 8,9 C 6,7 C 90 % 1014,6 hPa 0,0 l/m 0 min 0 min 25 W/m 19,3 km/h (3 Bft) 95,74 %
22.02.2022 17:20 9,7 C 8,9 C 6,7 C 90 % 1014,6 hPa 0,0 l/m 0 min 0 min 25 W/m 25,7 km/h (4 Bft) 97,87 %
22.02.2022 17:22 9,7 C 8,9 C 6,7 C 90 % 1014,6 hPa 0,0 l/m 0 min 0 min 20 W/m 22,5 km/h (4 Bft) 95,65 %
22.02.2022 17:24 9,7 C 8,9 C 6,7 C 90 % 1014,5 hPa 0,0 l/m 0 min 0 min 21 W/m 45,1 km/h (6 Bft) 97,87 %
22.02.2022 17:26 9,7 C 9,4 C 6,7 C 90 % 1014,5 hPa 0,0 l/m 0 min 0 min 21 W/m 38,6 km/h (5 Bft) 97,87 %
22.02.2022 17:28 9,8 C 9,4 C 6,7 C 90 % 1014,4 hPa 0,0 l/m 0 min 0 min 15 W/m 19,3 km/h (3 Bft) 97,87 %
22.02.2022 17:30 9,8 C 9,4 C 6,7 C 90 % 1014,5 hPa 0,0 l/m 0 min 0 min 15 W/m 25,7 km/h (4 Bft) 100,00 %
22.02.2022 17:32 9,8 C 9,4 C 6,7 C 90 % 1014,5 hPa 0,0 l/m 0 min 0 min 14 W/m 51,5 km/h (7 Bft) 97,83 %
22.02.2022 17:34 9,8 C 9,4 C 6,7 C 90 % 1014,6 hPa 0,0 l/m 0 min 0 min 7 W/m 22,5 km/h (4 Bft) 100,00 %
22.02.2022 17:36 9,8 C 9,4 C 6,7 C 90 % 1014,5 hPa 0,0 l/m 0 min 0 min 3 W/m 25,7 km/h (4 Bft) 96,23 %
22.02.2022 17:38 9,8 C 9,4 C 6,7 C 89 % 1014,5 hPa 0,0 l/m 0 min 0 min 5 W/m 22,5 km/h (4 Bft) 100,00 %
22.02.2022 17:40 9,8 C 9,4 C 6,7 C 89 % 1014,6 hPa 0,0 l/m 0 min 2 min 5 W/m 19,3 km/h (3 Bft) 100,00 %
22.02.2022 17:42 9,8 C 8,9 C 6,7 C 90 % 1014,6 hPa 0,0 l/m 0 min 2 min 3 W/m 35,4 km/h (5 Bft) 100,00 %
22.02.2022 17:44 9,9 C 8,9 C 6,1 C 90 % 1014,6 hPa 0,0 l/m 0 min 2 min 7 W/m 25,7 km/h (4 Bft) 100,00 %
22.02.2022 17:46 9,8 C 8,9 C 6,1 C 90 % 1014,5 hPa 0,0 l/m 0 min 2 min 6 W/m 22,5 km/h (4 Bft) 100,00 %
22.02.2022 17:48 9,8 C 8,9 C 5,6 C 90 % 1014,5 hPa 0,0 l/m 0 min 2 min 9 W/m 29,0 km/h (5 Bft) 100,00 %
22.02.2022 17:50 9,8 C 8,9 C 5,6 C 90 % 1014,4 hPa 0,2 l/m 0 min 2 min 12 W/m 19,3 km/h (3 Bft) 100,00 %
22.02.2022 17:52 9,7 C 8,9 C 5,6 C 90 % 1014,4 hPa 0,0 l/m 0 min 2 min 10 W/m 29,0 km/h (5 Bft) 100,00 %
22.02.2022 17:54 9,7 C 8,9 C 5,6 C 91 % 1014,4 hPa 0,0 l/m 0 min 2 min 6 W/m 41,8 km/h (6 Bft) 97,83 %
22.02.2022 17:56 9,7 C 8,9 C 5,6 C 91 % 1014,4 hPa 0,0 l/m 0 min 2 min 5 W/m 25,7 km/h (4 Bft) 100,00 %
22.02.2022 17:58 9,7 C 8,9 C 5,6 C 91 % 1014,4 hPa 0,0 l/m 0 min 2 min 0 W/m 22,5 km/h (4 Bft) 100,00 %
22.02.2022 18:00 9,7 C 8,9 C 5,6 C 91 % 1014,4 hPa 0,0 l/m 0 min 2 min 0 W/m 38,6 km/h (5 Bft) 95,74 %
22.02.2022 18:02 9,7 C 8,9 C 5,6 C 91 % 1014,4 hPa 0,0 l/m 0 min 2 min 0 W/m 35,4 km/h (5 Bft) 97,87 %
22.02.2022 18:04 9,7 C 8,9 C 5,6 C 91 % 1014,4 hPa 0,0 l/m 0 min 0 min 0 W/m 35,4 km/h (5 Bft) 100,00 %
22.02.2022 18:08 9,7 C 8,9 C 5,6 C 91 % 1014,5 hPa 0,0 l/m 0 min 4 min 0 W/m 35,4 km/h (5 Bft) 100,00 %
22.02.2022 18:10 9,7 C 8,9 C 5,6 C 91 % 1014,4 hPa 0,0 l/m 0 min 2 min 0 W/m 19,3 km/h (3 Bft) 100,00 %
22.02.2022 18:12 9,7 C 8,9 C 5,6 C 91 % 1014,5 hPa 0,0 l/m 0 min 2 min 0 W/m 22,5 km/h (4 Bft) 97,87 %
22.02.2022 18:14 9,7 C 8,9 C 5,6 C 91 % 1014,5 hPa 0,0 l/m 0 min 2 min 0 W/m 22,5 km/h (4 Bft) 100,00 %
22.02.2022 18:16 9,7 C 8,9 C 5,6 C 91 % 1014,4 hPa 0,0 l/m 0 min 2 min 0 W/m 22,5 km/h (4 Bft) 100,00 %
22.02.2022 18:18 9,7 C 8,9 C 5,6 C 91 % 1014,4 hPa 0,0 l/m 0 min 2 min 0 W/m 22,5 km/h (4 Bft) 100,00 %
22.02.2022 18:20 9,7 C 8,9 C 5,6 C 92 % 1014,4 hPa 0,0 l/m 0 min 2 min 0 W/m 25,7 km/h (4 Bft) 100,00 %
22.02.2022 18:22 9,7 C 8,9 C 5,6 C 92 % 1014,5 hPa 0,0 l/m 0 min 2 min 0 W/m 22,5 km/h (4 Bft) 100,00 %
22.02.2022 18:24 9,7 C 8,9 C 5,6 C 92 % 1014,5 hPa 0,0 l/m 0 min 2 min 0 W/m 19,3 km/h (3 Bft) 100,00 %
22.02.2022 18:26 9,6 C 8,9 C 5,6 C 92 % 1014,5 hPa 0,0 l/m 0 min 2 min 0 W/m 19,3 km/h (3 Bft) 95,74 %
22.02.2022 18:28 9,6 C 8,9 C 5,6 C 92 % 1014,6 hPa 0,0 l/m 0 min 2 min 0 W/m 25,7 km/h (4 Bft) 97,83 %
22.02.2022 18:30 9,6 C 8,9 C 5,6 C 92 % 1014,5 hPa 0,0 l/m 0 min 2 min 0 W/m 22,5 km/h (4 Bft) 97,87 %
22.02.2022 18:32 9,6 C 8,3 C 5,6 C 92 % 1014,5 hPa 0,0 l/m 0 min 2 min 0 W/m 25,7 km/h (4 Bft) 95,74 %
22.02.2022 18:34 9,6 C 8,3 C 5,6 C 92 % 1014,6 hPa 0,0 l/m 0 min 2 min 0 W/m 19,3 km/h (3 Bft) 95,74 %
22.02.2022 18:36 9,5 C 8,3 C 5,6 C 92 % 1014,6 hPa 0,0 l/m 0 min 2 min 0 W/m 35,4 km/h (5 Bft) 97,87 %
22.02.2022 18:38 9,5 C 8,3 C 5,6 C 93 % 1014,6 hPa 0,0 l/m 0 min 2 min 0 W/m 32,2 km/h (5 Bft) 97,87 %
22.02.2022 18:40 9,5 C 8,3 C 5,6 C 93 % 1014,6 hPa 0,0 l/m 0 min 2 min 0 W/m 25,7 km/h (4 Bft) 93,88 %
22.02.2022 18:42 9,5 C 8,3 C 5,6 C 93 % 1014,5 hPa 0,2 l/m 0 min 2 min 0 W/m 19,3 km/h (3 Bft) 97,87 %
22.02.2022 18:44 9,4 C 8,3 C 5,6 C 93 % 1014,6 hPa 0,0 l/m 0 min 2 min 0 W/m 16,1 km/h (3 Bft) 93,62 %
22.02.2022 18:46 9,4 C 8,3 C 5,6 C 93 % 1014,7 hPa 0,0 l/m 0 min 2 min 0 W/m 22,5 km/h (4 Bft) 95,74 %
22.02.2022 18:48 9,4 C 8,3 C 5,6 C 93 % 1014,6 hPa 0,0 l/m 0 min 2 min 0 W/m 19,3 km/h (3 Bft) 95,74 %
22.02.2022 18:50 9,4 C 8,3 C 5,6 C 94 % 1014,6 hPa 0,0 l/m 0 min 2 min 0 W/m 29,0 km/h (5 Bft) 93,48 %
22.02.2022 18:52 9,4 C 8,3 C 5,6 C 94 % 1014,6 hPa 0,0 l/m 0 min 0 min 0 W/m 19,3 km/h (3 Bft) 95,74 %
22.02.2022 18:54 9,4 C 8,3 C 5,6 C 94 % 1014,6 hPa 0,0 l/m 0 min 0 min 0 W/m 19,3 km/h (3 Bft) 93,62 %
22.02.2022 18:56 9,3 C 8,3 C 5,6 C 94 % 1014,6 hPa 0,0 l/m 0 min 0 min 0 W/m 19,3 km/h (3 Bft) 93,62 %
22.02.2022 18:58 9,3 C 8,3 C 5,6 C 94 % 1014,6 hPa 0,0 l/m 0 min 0 min 0 W/m 16,1 km/h (3 Bft) 93,62 %
22.02.2022 19:00 9,3 C 8,3 C 5,6 C 94 % 1014,6 hPa 0,0 l/m 0 min 2 min 0 W/m 16,1 km/h (3 Bft) 93,62 %
22.02.2022 19:02 9,3 C 8,3 C 5,6 C 94 % 1014,5 hPa 0,0 l/m 0 min 0 min 0 W/m 38,6 km/h (5 Bft) 93,48 %
22.02.2022 19:04 9,4 C 8,3 C 5,6 C 95 % 1014,7 hPa 0,0 l/m 0 min 2 min 0 W/m 12,9 km/h (3 Bft) 91,49 %
22.02.2022 19:06 9,4 C 8,3 C 5,6 C 95 % 1014,6 hPa 0,0 l/m 0 min 0 min 0 W/m 16,1 km/h (3 Bft) 93,62 %
22.02.2022 19:08 9,5 C 8,3 C 5,6 C 95 % 1014,6 hPa 0,0 l/m 0 min 2 min 0 W/m 22,5 km/h (4 Bft) 93,62 %
22.02.2022 19:10 9,5 C 8,3 C 5,6 C 95 % 1014,6 hPa 0,0 l/m 0 min 2 min 0 W/m 35,4 km/h (5 Bft) 93,62 %
22.02.2022 19:12 9,5 C 8,3 C 5,6 C 95 % 1014,6 hPa 0,0 l/m 0 min 2 min 0 W/m 19,3 km/h (3 Bft) 93,62 %
22.02.2022 19:14 9,6 C 8,3 C 5,6 C 95 % 1014,6 hPa 0,0 l/m 0 min 2 min 0 W/m 19,3 km/h (3 Bft) 91,30 %
22.02.2022 19:16 9,6 C 8,9 C 5,6 C 95 % 1014,6 hPa 0,0 l/m 0 min 2 min 0 W/m 38,6 km/h (5 Bft) 93,62 %
22.02.2022 19:18 9,6 C 8,9 C 5,6 C 95 % 1014,6 hPa 0,0 l/m 0 min 2 min 0 W/m 22,5 km/h (4 Bft) 93,62 %
22.02.2022 19:20 9,6 C 8,9 C 5,6 C 95 % 1014,6 hPa 0,0 l/m 0 min 0 min 0 W/m 12,9 km/h (3 Bft) 91,49 %
22.02.2022 19:22 9,6 C 8,9 C 5,6 C 95 % 1014,7 hPa 0,0 l/m 0 min 0 min 0 W/m 22,5 km/h (4 Bft) 91,49 %
22.02.2022 19:24 9,6 C 8,9 C 5,6 C 95 % 1014,7 hPa 0,0 l/m 0 min 2 min 0 W/m 19,3 km/h (3 Bft) 95,74 %
22.02.2022 19:26 9,6 C 8,9 C 5,6 C 95 % 1014,8 hPa 0,0 l/m 0 min 2 min 0 W/m 19,3 km/h (3 Bft) 97,83 %
22.02.2022 19:28 9,6 C 8,3 C 5,6 C 95 % 1014,8 hPa 0,2 l/m 0 min 2 min 0 W/m 29,0 km/h (5 Bft) 95,74 %
22.02.2022 19:30 9,6 C 8,3 C 5,6 C 95 % 1014,9 hPa 0,0 l/m 0 min 2 min 0 W/m 16,1 km/h (3 Bft) 97,87 %
22.02.2022 19:32 9,6 C 8,3 C 5,6 C 95 % 1014,8 hPa 0,0 l/m 0 min 2 min 0 W/m 22,5 km/h (4 Bft) 97,30 %
22.02.2022 19:34 9,6 C 8,3 C 5,6 C 95 % 1014,8 hPa 0,0 l/m 0 min 2 min 0 W/m 22,5 km/h (4 Bft) 97,87 %
22.02.2022 19:37 9,6 C 8,3 C 6,1 C 95 % 1015,0 hPa 0,2 l/m 0 min 3 min 0 W/m 16,1 km/h (3 Bft) 98,77 %
22.02.2022 19:38 9,6 C 8,3 C 6,1 C 95 % 1015,0 hPa 0,0 l/m 0 min 1 min 0 W/m 16,1 km/h (3 Bft) 100,00 %
22.02.2022 19:40 9,6 C 8,3 C 6,1 C 95 % 1015,0 hPa 0,2 l/m 0 min 2 min 0 W/m 19,3 km/h (3 Bft) 100,00 %
22.02.2022 19:42 9,6 C 8,3 C 5,6 C 95 % 1015,0 hPa 0,0 l/m 0 min 2 min 0 W/m 12,9 km/h (3 Bft) 95,74 %
22.02.2022 19:46 9,6 C 8,3 C 6,1 C 95 % 1015,2 hPa 0,2 l/m 0 min 4 min 0 W/m 19,3 km/h (3 Bft) 98,89 %
22.02.2022 19:48 9,6 C 8,3 C 6,1 C 95 % 1015,4 hPa 0,4 l/m 0 min 2 min 0 W/m 19,3 km/h (3 Bft) 97,87 %
22.02.2022 19:50 9,5 C 8,3 C 6,1 C 96 % 1015,3 hPa 0,2 l/m 0 min 2 min 0 W/m 12,9 km/h (3 Bft) 100,00 %
22.02.2022 19:52 9,5 C 8,3 C 6,1 C 96 % 1015,4 hPa 0,2 l/m 0 min 2 min 0 W/m 12,9 km/h (3 Bft) 97,87 %
22.02.2022 19:54 9,5 C 8,3 C 6,1 C 96 % 1015,4 hPa 0,2 l/m 0 min 2 min 0 W/m 16,1 km/h (3 Bft) 100,00 %
22.02.2022 19:56 9,4 C 8,3 C 5,6 C 96 % 1015,3 hPa 0,0 l/m 0 min 2 min 0 W/m 22,5 km/h (4 Bft) 100,00 %
22.02.2022 19:58 9,4 C 7,8 C 5,6 C 96 % 1015,4 hPa 0,2 l/m 0 min 2 min 0 W/m 25,7 km/h (4 Bft) 100,00 %
22.02.2022 20:00 9,3 C 7,8 C 5,6 C 96 % 1015,3 hPa 0,0 l/m 0 min 2 min 0 W/m 25,7 km/h (4 Bft) 100,00 %
22.02.2022 20:02 9,3 C 7,8 C 5,6 C 96 % 1015,4 hPa 0,0 l/m 0 min 2 min 0 W/m 25,7 km/h (4 Bft) 100,00 %
22.02.2022 20:04 9,3 C 8,3 C 5,6 C 96 % 1015,5 hPa 0,0 l/m 0 min 2 min 0 W/m 41,8 km/h (6 Bft) 100,00 %
22.02.2022 20:06 9,3 C 8,3 C 5,6 C 95 % 1015,6 hPa 0,2 l/m 0 min 2 min 0 W/m 29,0 km/h (5 Bft) 97,87 %
22.02.2022 20:08 9,2 C 8,3 C 5,6 C 95 % 1015,7 hPa 0,0 l/m 0 min 2 min 0 W/m 19,3 km/h (3 Bft) 100,00 %
22.02.2022 20:10 9,2 C 8,3 C 5,6 C 95 % 1016,1 hPa 0,2 l/m 0 min 2 min 0 W/m 41,8 km/h (6 Bft) 100,00 %
22.02.2022 20:12 8,9 C 7,8 C 5,0 C 95 % 1016,3 hPa 0,0 l/m 0 min 2 min 0 W/m 51,5 km/h (7 Bft) 100,00 %
22.02.2022 20:14 8,6 C 7,2 C 4,4 C 94 % 1016,5 hPa 0,2 l/m 0 min 2 min 0 W/m 38,6 km/h (5 Bft) 100,00 %
22.02.2022 20:16 8,4 C 6,7 C 4,4 C 93 % 1016,5 hPa 0,0 l/m 0 min 2 min 0 W/m 32,2 km/h (5 Bft) 100,00 %
22.02.2022 20:18 8,3 C 6,7 C 4,4 C 93 % 1016,6 hPa 0,0 l/m 0 min 2 min 0 W/m 35,4 km/h (5 Bft) 100,00 %
22.02.2022 20:20 8,2 C 6,7 C 4,4 C 93 % 1016,6 hPa 0,0 l/m 0 min 2 min 0 W/m 41,8 km/h (6 Bft) 100,00 %
22.02.2022 20:22 8,1 C 6,7 C 4,4 C 93 % 1016,6 hPa 0,0 l/m 0 min 2 min 0 W/m 16,1 km/h (3 Bft) 100,00 %
22.02.2022 20:24 7,9 C 6,7 C 4,4 C 92 % 1016,7 hPa 0,0 l/m 0 min 2 min 0 W/m 19,3 km/h (3 Bft) 100,00 %
22.02.2022 20:26 7,9 C 6,7 C 3,9 C 92 % 1016,7 hPa 0,0 l/m 0 min 2 min 0 W/m 16,1 km/h (3 Bft) 97,83 %
22.02.2022 20:28 7,8 C 6,7 C 3,9 C 92 % 1016,9 hPa 0,0 l/m 0 min 2 min 0 W/m 16,1 km/h (3 Bft) 100,00 %
22.02.2022 20:30 7,8 C 6,7 C 3,9 C 92 % 1016,9 hPa 0,0 l/m 0 min 2 min 0 W/m 25,7 km/h (4 Bft) 100,00 %
22.02.2022 20:32 7,7 C 6,7 C 3,9 C 92 % 1017,0 hPa 0,0 l/m 0 min 0 min 0 W/m 16,1 km/h (3 Bft) 100,00 %
22.02.2022 20:34 7,7 C 6,7 C 3,9 C 92 % 1017,0 hPa 0,0 l/m 0 min 0 min 0 W/m 25,7 km/h (4 Bft) 100,00 %
22.02.2022 20:36 7,7 C 6,7 C 3,9 C 92 % 1017,0 hPa 0,0 l/m 0 min 0 min 0 W/m 16,1 km/h (3 Bft) 100,00 %
22.02.2022 20:38 7,7 C 6,7 C 3,9 C 92 % 1017,1 hPa 0,0 l/m 0 min 0 min 0 W/m 16,1 km/h (3 Bft) 100,00 %
22.02.2022 20:40 7,7 C 6,7 C 3,9 C 92 % 1017,1 hPa 0,0 l/m 0 min 0 min 0 W/m 22,5 km/h (4 Bft) 100,00 %
22.02.2022 20:42 7,7 C 6,7 C 3,9 C 92 % 1017,2 hPa 0,0 l/m 0 min 0 min 0 W/m 19,3 km/h (3 Bft) 100,00 %
22.02.2022 20:44 7,7 C 6,7 C 3,9 C 92 % 1017,2 hPa 0,0 l/m 0 min 0 min 0 W/m 32,2 km/h (5 Bft) 100,00 %
22.02.2022 20:46 7,7 C 6,7 C 3,9 C 92 % 1017,2 hPa 0,0 l/m 0 min 0 min 0 W/m 19,3 km/h (3 Bft) 95,74 %
22.02.2022 20:48 7,7 C 6,7 C 3,9 C 92 % 1017,3 hPa 0,0 l/m 0 min 0 min 0 W/m 12,9 km/h (3 Bft) 95,65 %
22.02.2022 20:50 7,7 C 6,7 C 3,9 C 92 % 1017,3 hPa 0,0 l/m 0 min 0 min 0 W/m 19,3 km/h (3 Bft) 97,87 %
22.02.2022 20:52 7,7 C 6,7 C 3,9 C 91 % 1017,4 hPa 0,0 l/m 0 min 0 min 0 W/m 19,3 km/h (3 Bft) 95,74 %
22.02.2022 20:54 7,7 C 6,7 C 3,9 C 91 % 1017,5 hPa 0,0 l/m 0 min 0 min 0 W/m 12,9 km/h (3 Bft) 97,87 %
22.02.2022 20:56 7,7 C 6,7 C 3,9 C 91 % 1017,5 hPa 0,0 l/m 0 min 0 min 0 W/m 16,1 km/h (3 Bft) 97,87 %
22.02.2022 20:58 7,6 C 6,7 C 3,9 C 91 % 1017,5 hPa 0,0 l/m 0 min 0 min 0 W/m 16,1 km/h (3 Bft) 95,74 %
22.02.2022 21:00 7,6 C 6,7 C 3,9 C 91 % 1017,6 hPa 0,0 l/m 0 min 0 min 0 W/m 22,5 km/h (4 Bft) 97,83 %
22.02.2022 21:02 7,6 C 6,7 C 3,9 C 91 % 1017,7 hPa 0,0 l/m 0 min 0 min 0 W/m 12,9 km/h (3 Bft) 97,87 %
22.02.2022 21:04 7,6 C 6,7 C 3,9 C 91 % 1017,7 hPa 0,0 l/m 0 min 0 min 0 W/m 16,1 km/h (3 Bft) 97,87 %
22.02.2022 21:06 7,6 C 6,7 C 3,9 C 91 % 1017,7 hPa 0,0 l/m 0 min 0 min 0 W/m 19,3 km/h (3 Bft) 97,87 %
22.02.2022 21:08 7,6 C 6,7 C 3,9 C 91 % 1017,8 hPa 0,0 l/m 0 min 0 min 0 W/m 9,7 km/h (2 Bft) 97,87 %
22.02.2022 21:10 7,6 C 6,7 C 3,9 C 91 % 1017,8 hPa 0,0 l/m 0 min 0 min 0 W/m 12,9 km/h (3 Bft) 95,74 %
22.02.2022 21:12 7,6 C 6,7 C 3,9 C 91 % 1017,8 hPa 0,0 l/m 0 min 0 min 0 W/m 12,9 km/h (3 Bft) 97,83 %
22.02.2022 21:14 7,6 C 6,7 C 3,9 C 91 % 1017,9 hPa 0,0 l/m 0 min 0 min 0 W/m 12,9 km/h (3 Bft) 100,00 %
22.02.2022 21:16 7,6 C 6,7 C 3,9 C 91 % 1017,9 hPa 0,0 l/m 0 min 0 min 0 W/m 12,9 km/h (3 Bft) 100,00 %
22.02.2022 21:18 7,6 C 6,7 C 3,9 C 91 % 1017,9 hPa 0,0 l/m 0 min 0 min 0 W/m 19,3 km/h (3 Bft) 100,00 %
22.02.2022 21:20 7,6 C 6,7 C 3,9 C 91 % 1017,9 hPa 0,0 l/m 0 min 0 min 0 W/m 12,9 km/h (3 Bft) 97,87 %
22.02.2022 21:22 7,6 C 6,7 C 3,9 C 91 % 1018,0 hPa 0,0 l/m 0 min 0 min 0 W/m 12,9 km/h (3 Bft) 95,74 %
22.02.2022 21:24 7,6 C 6,7 C 3,9 C 91 % 1018,1 hPa 0,0 l/m 0 min 0 min 0 W/m 9,7 km/h (2 Bft) 97,83 %
22.02.2022 21:26 7,5 C 6,7 C 3,3 C 90 % 1018,1 hPa 0,0 l/m 0 min 0 min 0 W/m 25,7 km/h (4 Bft) 97,87 %
22.02.2022 21:28 7,5 C 6,7 C 3,3 C 90 % 1018,2 hPa 0,0 l/m 0 min 0 min 0 W/m 9,7 km/h (2 Bft) 97,87 %
22.02.2022 21:30 7,5 C 6,7 C 3,3 C 90 % 1018,3 hPa 0,0 l/m 0 min 0 min 0 W/m 9,7 km/h (2 Bft) 97,87 %
22.02.2022 21:32 7,5 C 6,7 C 3,3 C 90 % 1018,4 hPa 0,0 l/m 0 min 0 min 0 W/m 16,1 km/h (3 Bft) 97,87 %
22.02.2022 21:34 7,5 C 6,7 C 3,3 C 90 % 1018,4 hPa 0,0 l/m 0 min 0 min 0 W/m 16,1 km/h (3 Bft) 97,87 %
22.02.2022 21:36 7,5 C 6,7 C 3,3 C 90 % 1018,4 hPa 0,0 l/m 0 min 0 min 0 W/m 12,9 km/h (3 Bft) 95,65 %
22.02.2022 21:38 7,4 C 6,7 C 3,3 C 90 % 1018,5 hPa 0,0 l/m 0 min 0 min 0 W/m 12,9 km/h (3 Bft) 97,87 %
22.02.2022 21:40 7,4 C 6,7 C 3,3 C 90 % 1018,6 hPa 0,0 l/m 0 min 0 min 0 W/m 22,5 km/h (4 Bft) 95,74 %
22.02.2022 21:42 7,4 C 6,7 C 3,3 C 90 % 1018,7 hPa 0,0 l/m 0 min 0 min 0 W/m 12,9 km/h (3 Bft) 95,74 %
22.02.2022 21:44 7,4 C 6,7 C 3,3 C 90 % 1018,7 hPa 0,0 l/m 0 min 0 min 0 W/m 16,1 km/h (3 Bft) 97,87 %
22.02.2022 21:46 7,4 C 6,7 C 3,3 C 90 % 1018,7 hPa 0,0 l/m 0 min 0 min 0 W/m 12,9 km/h (3 Bft) 95,74 %
22.02.2022 21:48 7,4 C 6,7 C 3,3 C 90 % 1018,7 hPa 0,0 l/m 0 min 0 min 0 W/m 16,1 km/h (3 Bft) 95,65 %
22.02.2022 21:50 7,4 C 6,7 C 3,3 C 90 % 1018,8 hPa 0,0 l/m 0 min 0 min 0 W/m 16,1 km/h (3 Bft) 95,74 %
22.02.2022 21:52 7,4 C 6,7 C 3,3 C 90 % 1018,8 hPa 0,0 l/m 0 min 0 min 0 W/m 12,9 km/h (3 Bft) 95,74 %
22.02.2022 21:54 7,4 C 6,7 C 3,3 C 90 % 1018,8 hPa 0,0 l/m 0 min 0 min 0 W/m 12,9 km/h (3 Bft) 95,74 %
22.02.2022 21:56 7,4 C 6,7 C 3,3 C 90 % 1018,9 hPa 0,0 l/m 0 min 0 min 0 W/m 9,7 km/h (2 Bft) 95,74 %
22.02.2022 21:58 7,4 C 6,7 C 3,3 C 90 % 1019,0 hPa 0,0 l/m 0 min 0 min 0 W/m 6,4 km/h (2 Bft) 95,74 %
22.02.2022 22:00 7,4 C 6,1 C 3,3 C 90 % 1019,0 hPa 0,0 l/m 0 min 0 min 0 W/m 6,4 km/h (2 Bft) 95,65 %
22.02.2022 22:02 7,4 C 6,1 C 3,3 C 90 % 1019,0 hPa 0,0 l/m 0 min 0 min 0 W/m 9,7 km/h (2 Bft) 95,74 %
22.02.2022 22:04 7,3 C 6,1 C 3,3 C 90 % 1019,1 hPa 0,0 l/m 0 min 0 min 0 W/m 6,4 km/h (2 Bft) 97,87 %
22.02.2022 22:06 7,3 C 6,1 C 3,3 C 90 % 1019,1 hPa 0,0 l/m 0 min 0 min 0 W/m 9,7 km/h (2 Bft) 97,87 %
22.02.2022 22:08 7,3 C 6,1 C 3,3 C 90 % 1019,2 hPa 0,0 l/m 0 min 0 min 0 W/m 6,4 km/h (2 Bft) 95,74 %
22.02.2022 22:10 7,2 C 6,1 C 3,3 C 90 % 1019,1 hPa 0,0 l/m 0 min 0 min 0 W/m 6,4 km/h (2 Bft) 95,65 %
22.02.2022 22:12 7,2 C 6,1 C 3,3 C 90 % 1019,2 hPa 0,0 l/m 0 min 0 min 0 W/m 6,4 km/h (2 Bft) 97,87 %
22.02.2022 22:14 7,2 C 5,6 C 2,8 C 90 % 1019,3 hPa 0,0 l/m 0 min 0 min 0 W/m 9,7 km/h (2 Bft) 97,87 %
22.02.2022 22:16 7,1 C 5,6 C 2,8 C 90 % 1019,4 hPa 0,0 l/m 0 min 0 min 0 W/m 3,2 km/h (1 Bft) 97,87 %
22.02.2022 22:18 7,1 C 5,6 C 2,8 C 90 % 1019,5 hPa 0,0 l/m 0 min 0 min 0 W/m 0,0 km/h (0 Bft) 95,74 %
22.02.2022 22:20 7,0 C 5,6 C 2,8 C 90 % 1019,5 hPa 0,0 l/m 0 min 0 min 0 W/m 0,0 km/h (0 Bft) 95,74 %
22.02.2022 22:22 6,9 C 5,6 C 2,8 C 90 % 1019,5 hPa 0,0 l/m 0 min 0 min 0 W/m 0,0 km/h (0 Bft) 97,87 %
22.02.2022 22:24 6,9 C 5,6 C 2,8 C 90 % 1019,6 hPa 0,0 l/m 0 min 0 min 0 W/m 9,7 km/h (2 Bft) 97,83 %
22.02.2022 22:26 6,9 C 5,6 C 2,8 C 90 % 1019,6 hPa 0,0 l/m 0 min 0 min 0 W/m 9,7 km/h (2 Bft) 95,74 %
22.02.2022 22:28 6,8 C 5,6 C 2,8 C 90 % 1019,6 hPa 0,0 l/m 0 min 0 min 0 W/m 9,7 km/h (2 Bft) 95,74 %
22.02.2022 22:30 6,8 C 5,6 C 2,8 C 90 % 1019,6 hPa 0,0 l/m 0 min 0 min 0 W/m 6,4 km/h (2 Bft) 93,62 %
22.02.2022 22:32 6,8 C 5,6 C 2,8 C 90 % 1019,6 hPa 0,0 l/m 0 min 0 min 0 W/m 9,7 km/h (2 Bft) 95,74 %
22.02.2022 22:34 6,7 C 5,6 C 2,8 C 91 % 1019,7 hPa 0,0 l/m 0 min 0 min 0 W/m 3,2 km/h (1 Bft) 93,62 %
22.02.2022 22:36 6,7 C 5,6 C 2,8 C 91 % 1019,7 hPa 0,0 l/m 0 min 0 min 0 W/m 6,4 km/h (2 Bft) 95,65 %
22.02.2022 22:38 6,7 C 5,6 C 2,8 C 91 % 1019,8 hPa 0,0 l/m 0 min 0 min 0 W/m 6,4 km/h (2 Bft) 95,74 %
22.02.2022 22:40 6,6 C 5,6 C 2,8 C 91 % 1019,8 hPa 0,0 l/m 0 min 0 min 0 W/m 6,4 km/h (2 Bft) 97,87 %
22.02.2022 22:42 6,6 C 5,6 C 2,8 C 91 % 1019,9 hPa 0,0 l/m 0 min 0 min 0 W/m 6,4 km/h (2 Bft) 95,74 %
22.02.2022 22:44 6,6 C 5,6 C 2,8 C 91 % 1019,8 hPa 0,0 l/m 0 min 0 min 0 W/m 3,2 km/h (1 Bft) 93,62 %
22.02.2022 22:46 6,6 C 5,6 C 2,8 C 91 % 1019,9 hPa 0,0 l/m 0 min 0 min 0 W/m 3,2 km/h (1 Bft) 95,65 %
22.02.2022 22:48 6,5 C 5,0 C 2,8 C 91 % 1019,9 hPa 0,0 l/m 0 min 0 min 0 W/m 3,2 km/h (1 Bft) 95,74 %
22.02.2022 22:50 6,5 C 5,0 C 2,8 C 91 % 1020,0 hPa 0,0 l/m 0 min 0 min 0 W/m 3,2 km/h (1 Bft) 97,87 %
22.02.2022 22:52 6,5 C 5,0 C 2,8 C 91 % 1020,0 hPa 0,0 l/m 0 min 0 min 0 W/m 6,4 km/h (2 Bft) 97,87 %
22.02.2022 22:54 6,4 C 5,0 C 2,8 C 91 % 1020,1 hPa 0,0 l/m 0 min 0 min 0 W/m 3,2 km/h (1 Bft) 95,74 %
22.02.2022 22:56 6,4 C 5,0 C 2,8 C 91 % 1020,0 hPa 0,0 l/m 0 min 0 min 0 W/m 3,2 km/h (1 Bft) 97,87 %
22.02.2022 22:58 6,4 C 5,6 C 2,8 C 91 % 1020,1 hPa 0,0 l/m 0 min 0 min 0 W/m 6,4 km/h (2 Bft) 100,00 %
22.02.2022 23:00 6,4 C 5,6 C 2,8 C 92 % 1020,2 hPa 0,0 l/m 0 min 0 min 0 W/m 6,4 km/h (2 Bft) 100,00 %
22.02.2022 23:02 6,4 C 5,6 C 2,8 C 92 % 1020,2 hPa 0,0 l/m 0 min 0 min 0 W/m 3,2 km/h (1 Bft) 100,00 %
22.02.2022 23:04 6,4 C 5,6 C 2,8 C 92 % 1020,2 hPa 0,0 l/m 0 min 0 min 0 W/m 6,4 km/h (2 Bft) 100,00 %
22.02.2022 23:06 6,4 C 5,6 C 2,8 C 92 % 1020,3 hPa 0,0 l/m 0 min 0 min 0 W/m 6,4 km/h (2 Bft) 97,87 %
22.02.2022 23:08 6,4 C 5,6 C 2,8 C 92 % 1020,3 hPa 0,0 l/m 0 min 0 min 0 W/m 12,9 km/h (3 Bft) 100,00 %
22.02.2022 23:10 6,4 C 5,6 C 2,8 C 92 % 1020,4 hPa 0,0 l/m 0 min 0 min 0 W/m 6,4 km/h (2 Bft) 97,83 %
22.02.2022 23:12 6,4 C 5,6 C 2,8 C 92 % 1020,3 hPa 0,0 l/m 0 min 0 min 0 W/m 12,9 km/h (3 Bft) 97,87 %
22.02.2022 23:14 6,4 C 5,6 C 2,8 C 92 % 1020,4 hPa 0,0 l/m 0 min 0 min 0 W/m 6,4 km/h (2 Bft) 100,00 %
22.02.2022 23:16 6,4 C 5,6 C 2,8 C 92 % 1020,4 hPa 0,0 l/m 0 min 0 min 0 W/m 6,4 km/h (2 Bft) 100,00 %
22.02.2022 23:18 6,4 C 5,6 C 2,8 C 93 % 1020,5 hPa 0,0 l/m 0 min 0 min 0 W/m 3,2 km/h (1 Bft) 100,00 %
22.02.2022 23:20 6,4 C 5,6 C 2,8 C 93 % 1020,5 hPa 0,0 l/m 0 min 0 min 0 W/m 6,4 km/h (2 Bft) 100,00 %
22.02.2022 23:22 6,4 C 5,6 C 2,8 C 93 % 1020,6 hPa 0,0 l/m 0 min 0 min 0 W/m 6,4 km/h (2 Bft) 100,00 %
22.02.2022 23:24 6,4 C 5,6 C 2,8 C 93 % 1020,6 hPa 0,0 l/m 0 min 0 min 0 W/m 9,7 km/h (2 Bft) 100,00 %
22.02.2022 23:26 6,3 C 5,6 C 2,8 C 93 % 1020,6 hPa 0,0 l/m 0 min 0 min 0 W/m 6,4 km/h (2 Bft) 100,00 %
22.02.2022 23:28 6,3 C 5,0 C 2,8 C 93 % 1020,6 hPa 0,0 l/m 0 min 0 min 0 W/m 3,2 km/h (1 Bft) 98,00 %
22.02.2022 23:30 6,3 C 5,0 C 2,8 C 93 % 1020,7 hPa 0,0 l/m 0 min 0 min 0 W/m 6,4 km/h (2 Bft) 100,00 %
22.02.2022 23:32 6,3 C 5,0 C 2,8 C 93 % 1020,7 hPa 0,0 l/m 0 min 0 min 0 W/m 6,4 km/h (2 Bft) 100,00 %
22.02.2022 23:34 6,3 C 5,6 C 2,8 C 93 % 1020,7 hPa 0,0 l/m 0 min 0 min 0 W/m 3,2 km/h (1 Bft) 100,00 %
22.02.2022 23:36 6,3 C 5,6 C 2,8 C 93 % 1020,8 hPa 0,0 l/m 0 min 0 min 0 W/m 6,4 km/h (2 Bft) 100,00 %
22.02.2022 23:38 6,3 C 5,0 C 2,8 C 93 % 1020,8 hPa 0,0 l/m 0 min 0 min 0 W/m 9,7 km/h (2 Bft) 97,30 %
22.02.2022 23:40 6,3 C 5,0 C 2,8 C 93 % 1020,8 hPa 0,0 l/m 0 min 0 min 0 W/m 6,4 km/h (2 Bft) 95,74 %
22.02.2022 23:42 6,3 C 5,0 C 2,8 C 93 % 1020,9 hPa 0,0 l/m 0 min 0 min 0 W/m 3,2 km/h (1 Bft) 97,87 %
22.02.2022 23:44 6,2 C 5,0 C 2,8 C 93 % 1021,0 hPa 0,0 l/m 0 min 0 min 0 W/m 12,9 km/h (3 Bft) 98,11 %
22.02.2022 23:46 6,2 C 5,0 C 2,8 C 93 % 1020,9 hPa 0,0 l/m 0 min 0 min 0 W/m 6,4 km/h (2 Bft) 98,00 %
22.02.2022 23:48 6,2 C 5,0 C 2,8 C 93 % 1021,0 hPa 0,0 l/m 0 min 0 min 0 W/m 6,4 km/h (2 Bft) 95,74 %
22.02.2022 23:50 6,2 C 5,0 C 2,8 C 93 % 1021,0 hPa 0,0 l/m 0 min 0 min 0 W/m 9,7 km/h (2 Bft) 100,00 %
22.02.2022 23:52 6,2 C 5,0 C 2,8 C 93 % 1021,1 hPa 0,0 l/m 0 min 0 min 0 W/m 3,2 km/h (1 Bft) 97,87 %
22.02.2022 23:54 6,2 C 5,0 C 2,8 C 93 % 1021,1 hPa 0,0 l/m 0 min 0 min 0 W/m 6,4 km/h (2 Bft) 96,23 %
22.02.2022 23:56 6,2 C 5,0 C 2,8 C 93 % 1021,1 hPa 0,0 l/m 0 min 0 min 0 W/m 12,9 km/h (3 Bft) 97,87 %
22.02.2022 23:58 6,2 C 5,0 C 2,8 C 93 % 1021,2 hPa 0,0 l/m 0 min 0 min 0 W/m 3,2 km/h (1 Bft) 98,00 %
_ Min-Zeit 07:18 07:00 06:08 12:44 16:44 - - - - 07:58 06:24
Minimum _ 3,3 C 2,2 C 0,6 C 82 % 1014,4 hPa - - - - 0,0 km/h (0 Bft) 48,72 %
_ Max-Zeit 17:44 16:36 16:34 08:04 23:58 19:48 08:48 14:07 10:44 17:32 00:00
Maximum _ 9,9 C 9,4 C 6,7 C 96 % 1021,2 hPa 0,4 l/m 2 min 5 min 261 W/m 51,5 km/h
W-SW (7 Bft)
100,00 %
Durchschnitt _ 6,6 C 6,0 C 3,4 C 92 % 1017,7 hPa #3,0 l/m #48 min. #3:44 h 86 W/m 17,8 km/h (3 Bft) 97,21 %
© 2022 W. Hausmann